<?xml version='1.0' encoding='UTF-8'?><gpx version="1.1" creator="JPX - https://github.com/jenetics/jpx" xmlns="http://www.topografix.com/GPX/1/1"><trk><trkseg><trkpt lat="39.0773867" lon="16.2234983"><ele>485.00000000000006</ele><time>2026-05-03T16:31:56.159Z</time></trkpt><trkpt lat="39.077425" lon="16.2235633"><ele>485.0</ele><time>2026-05-03T16:32:03.98Z</time></trkpt><trkpt lat="39.0775067" lon="16.223545"><ele>485.00000000000006</ele><time>2026-05-03T16:32:05.98Z</time></trkpt><trkpt lat="39.07748" lon="16.2234567"><ele>485.00000000000006</ele><time>2026-05-03T16:32:14.99Z</time></trkpt><trkpt lat="39.07742" lon="16.2234267"><ele>485.0</ele><time>2026-05-03T16:32:21.988Z</time></trkpt><trkpt lat="39.07738" lon="16.22336"><ele>485.00000000000006</ele><time>2026-05-03T16:32:34.988Z</time></trkpt><trkpt lat="39.0773533" lon="16.2232833"><ele>485.00000000000006</ele><time>2026-05-03T16:32:58.98Z</time></trkpt><trkpt lat="39.07735" lon="16.2233667"><ele>485.0</ele><time>2026-05-03T16:33:10.987Z</time></trkpt><trkpt lat="39.0774233" lon="16.2233167"><ele>485.0</ele><time>2026-05-03T16:33:57.98Z</time></trkpt><trkpt lat="39.0774267" lon="16.2232117"><ele>485.0</ele><time>2026-05-03T16:33:59.99Z</time></trkpt><trkpt lat="39.0773767" lon="16.2231"><ele>485.0</ele><time>2026-05-03T16:34:01.988Z</time></trkpt><trkpt lat="39.0772867" lon="16.2230117"><ele>485.0</ele><time>2026-05-03T16:34:03.986Z</time></trkpt><trkpt lat="39.0772067" lon="16.2228983"><ele>483.1428571428572</ele><time>2026-05-03T16:34:05.989Z</time></trkpt><trkpt lat="39.0771717" lon="16.22283"><ele>481.28571428571433</ele><time>2026-05-03T16:34:06.988Z</time></trkpt><trkpt lat="39.0771417" lon="16.2227517"><ele>479.42857142857144</ele><time>2026-05-03T16:34:07.988Z</time></trkpt><trkpt lat="39.0771117" lon="16.222675"><ele>477.5714285714286</ele><time>2026-05-03T16:34:08.989Z</time></trkpt><trkpt lat="39.0770867" lon="16.222595"><ele>475.7142857142858</ele><time>2026-05-03T16:34:09.986Z</time></trkpt><trkpt lat="39.07706" lon="16.2225167"><ele>473.85714285714283</ele><time>2026-05-03T16:34:10.979Z</time></trkpt><trkpt lat="39.077035" lon="16.2224383"><ele>472.0</ele><time>2026-05-03T16:34:11.989Z</time></trkpt><trkpt lat="39.0770083" lon="16.2223633"><ele>467.20000000000005</ele><time>2026-05-03T16:34:12.989Z</time></trkpt><trkpt lat="39.0769817" lon="16.2222883"><ele>462.40000000000003</ele><time>2026-05-03T16:34:13.989Z</time></trkpt><trkpt lat="39.07694" lon="16.2221417"><ele>457.59999999999997</ele><time>2026-05-03T16:34:15.987Z</time></trkpt><trkpt lat="39.0768983" lon="16.2220467"><ele>452.79999999999995</ele><time>2026-05-03T16:34:17.989Z</time></trkpt><trkpt lat="39.0768033" lon="16.222045"><ele>448.0</ele><time>2026-05-03T16:34:19.99Z</time></trkpt><trkpt lat="39.0767133" lon="16.2220467"><ele>448.0</ele><time>2026-05-03T16:34:21.989Z</time></trkpt><trkpt lat="39.0766317" lon="16.2220633"><ele>447.99999999999994</ele><time>2026-05-03T16:34:23.989Z</time></trkpt><trkpt lat="39.076625" lon="16.2221667"><ele>447.99999999999994</ele><time>2026-05-03T16:34:26.991Z</time></trkpt><trkpt lat="39.0766683" lon="16.2222733"><ele>448.0</ele><time>2026-05-03T16:34:28.981Z</time></trkpt><trkpt lat="39.07668" lon="16.222415"><ele>448.0</ele><time>2026-05-03T16:34:30.987Z</time></trkpt><trkpt lat="39.0766633" lon="16.2225667"><ele>452.00000000000006</ele><time>2026-05-03T16:34:32.983Z</time></trkpt><trkpt lat="39.0766517" lon="16.2227233"><ele>456.0</ele><time>2026-05-03T16:34:34.989Z</time></trkpt><trkpt lat="39.07665" lon="16.222805"><ele>460.0</ele><time>2026-05-03T16:34:35.989Z</time></trkpt><trkpt lat="39.076645" lon="16.2228933"><ele>464.0</ele><time>2026-05-03T16:34:36.98Z</time></trkpt><trkpt lat="39.07663" lon="16.2229967"><ele>468.00000000000006</ele><time>2026-05-03T16:34:37.981Z</time></trkpt><trkpt lat="39.0766167" lon="16.2230883"><ele>472.0</ele><time>2026-05-03T16:34:38.99Z</time></trkpt><trkpt lat="39.0766017" lon="16.2231817"><ele>477.42857142857144</ele><time>2026-05-03T16:34:39.988Z</time></trkpt><trkpt lat="39.0765917" lon="16.2232733"><ele>482.8571428571429</ele><time>2026-05-03T16:34:40.989Z</time></trkpt><trkpt lat="39.0765783" lon="16.2233567"><ele>488.28571428571433</ele><time>2026-05-03T16:34:41.989Z</time></trkpt><trkpt lat="39.0765683" lon="16.2234467"><ele>493.7142857142857</ele><time>2026-05-03T16:34:42.988Z</time></trkpt><trkpt lat="39.076575" lon="16.2235417"><ele>499.1428571428572</ele><time>2026-05-03T16:34:43.989Z</time></trkpt><trkpt lat="39.076555" lon="16.2236317"><ele>504.5714285714286</ele><time>2026-05-03T16:34:44.989Z</time></trkpt><trkpt lat="39.0765283" lon="16.2237217"><ele>510.0</ele><time>2026-05-03T16:34:45.986Z</time></trkpt><trkpt lat="39.0764833" lon="16.2238767"><ele>510.0</ele><time>2026-05-03T16:34:47.988Z</time></trkpt><trkpt lat="39.0764367" lon="16.2239483"><ele>510.0</ele><time>2026-05-03T16:34:48.991Z</time></trkpt><trkpt lat="39.0763783" lon="16.2240167"><ele>510.0</ele><time>2026-05-03T16:34:49.98Z</time></trkpt><trkpt lat="39.0763133" lon="16.2240733"><ele>510.0</ele><time>2026-05-03T16:34:50.989Z</time></trkpt><trkpt lat="39.0762467" lon="16.224115"><ele>510.0</ele><time>2026-05-03T16:34:51.99Z</time></trkpt><trkpt lat="39.0761683" lon="16.2241433"><ele>510.0</ele><time>2026-05-03T16:34:52.989Z</time></trkpt><trkpt lat="39.076095" lon="16.224155"><ele>510.0</ele><time>2026-05-03T16:34:53.99Z</time></trkpt><trkpt lat="39.0760217" lon="16.2241667"><ele>510.0</ele><time>2026-05-03T16:34:54.988Z</time></trkpt><trkpt lat="39.0759417" lon="16.224175"><ele>510.0</ele><time>2026-05-03T16:34:55.981Z</time></trkpt><trkpt lat="39.0758583" lon="16.2241867"><ele>510.0</ele><time>2026-05-03T16:34:56.989Z</time></trkpt><trkpt lat="39.0757833" lon="16.224195"><ele>510.0</ele><time>2026-05-03T16:34:57.98Z</time></trkpt><trkpt lat="39.0757067" lon="16.224205"><ele>510.0</ele><time>2026-05-03T16:34:58.989Z</time></trkpt><trkpt lat="39.0756017" lon="16.2242283"><ele>512.4</ele><time>2026-05-03T16:34:59.99Z</time></trkpt><trkpt lat="39.0755133" lon="16.2242533"><ele>514.8</ele><time>2026-05-03T16:35:00.988Z</time></trkpt><trkpt lat="39.07542" lon="16.224285"><ele>517.2</ele><time>2026-05-03T16:35:01.989Z</time></trkpt><trkpt lat="39.07533" lon="16.2243267"><ele>519.6</ele><time>2026-05-03T16:35:02.991Z</time></trkpt><trkpt lat="39.0752467" lon="16.2243667"><ele>522.0</ele><time>2026-05-03T16:35:03.986Z</time></trkpt><trkpt lat="39.0751633" lon="16.224425"><ele>522.0</ele><time>2026-05-03T16:35:04.989Z</time></trkpt><trkpt lat="39.0751017" lon="16.2244683"><ele>522.0</ele><time>2026-05-03T16:35:05.989Z</time></trkpt><trkpt lat="39.07504" lon="16.2245017"><ele>522.0</ele><time>2026-05-03T16:35:06.988Z</time></trkpt><trkpt lat="39.074945" lon="16.2245183"><ele>522.0</ele><time>2026-05-03T16:35:08.989Z</time></trkpt><trkpt lat="39.07487" lon="16.2244433"><ele>522.0</ele><time>2026-05-03T16:35:10.981Z</time></trkpt><trkpt lat="39.0748283" lon="16.224345"><ele>522.0</ele><time>2026-05-03T16:35:12.981Z</time></trkpt><trkpt lat="39.0747967" lon="16.2241933"><ele>525.3333333333334</ele><time>2026-05-03T16:35:14.991Z</time></trkpt><trkpt lat="39.0747933" lon="16.2240967"><ele>528.6666666666666</ele><time>2026-05-03T16:35:15.986Z</time></trkpt><trkpt lat="39.0747783" lon="16.2240067"><ele>532.0</ele><time>2026-05-03T16:35:16.989Z</time></trkpt><trkpt lat="39.074765" lon="16.22391"><ele>535.3333333333333</ele><time>2026-05-03T16:35:17.99Z</time></trkpt><trkpt lat="39.0747483" lon="16.2238117"><ele>538.6666666666666</ele><time>2026-05-03T16:35:18.992Z</time></trkpt><trkpt lat="39.0747267" lon="16.22371"><ele>542.0</ele><time>2026-05-03T16:35:19.989Z</time></trkpt><trkpt lat="39.07471" lon="16.2235983"><ele>542.5</ele><time>2026-05-03T16:35:20.98Z</time></trkpt><trkpt lat="39.07469" lon="16.2234867"><ele>543.0</ele><time>2026-05-03T16:35:21.986Z</time></trkpt><trkpt lat="39.07467" lon="16.22338"><ele>543.5</ele><time>2026-05-03T16:35:22.988Z</time></trkpt><trkpt lat="39.0746533" lon="16.2232783"><ele>544.0</ele><time>2026-05-03T16:35:23.99Z</time></trkpt><trkpt lat="39.0746317" lon="16.2232"><ele>544.5</ele><time>2026-05-03T16:35:24.988Z</time></trkpt><trkpt lat="39.074595" lon="16.2231317"><ele>545.0</ele><time>2026-05-03T16:35:25.989Z</time></trkpt><trkpt lat="39.0745083" lon="16.2230517"><ele>548.4</ele><time>2026-05-03T16:35:27.986Z</time></trkpt><trkpt lat="39.07439" lon="16.22305"><ele>551.8</ele><time>2026-05-03T16:35:29.981Z</time></trkpt><trkpt lat="39.0743083" lon="16.2230617"><ele>555.2</ele><time>2026-05-03T16:35:30.981Z</time></trkpt><trkpt lat="39.07422" lon="16.2230733"><ele>558.6</ele><time>2026-05-03T16:35:31.982Z</time></trkpt><trkpt lat="39.074135" lon="16.2230683"><ele>562.0</ele><time>2026-05-03T16:35:32.99Z</time></trkpt><trkpt lat="39.0740533" lon="16.2230567"><ele>562.0</ele><time>2026-05-03T16:35:33.986Z</time></trkpt><trkpt lat="39.07397" lon="16.2230233"><ele>562.0</ele><time>2026-05-03T16:35:34.981Z</time></trkpt><trkpt lat="39.0738967" lon="16.2229667"><ele>562.0</ele><time>2026-05-03T16:35:35.987Z</time></trkpt><trkpt lat="39.07383" lon="16.2229"><ele>562.0</ele><time>2026-05-03T16:35:36.981Z</time></trkpt><trkpt lat="39.073755" lon="16.222825"><ele>562.0</ele><time>2026-05-03T16:35:37.979Z</time></trkpt><trkpt lat="39.073675" lon="16.2227517"><ele>562.0</ele><time>2026-05-03T16:35:38.99Z</time></trkpt><trkpt lat="39.0735933" lon="16.2226717"><ele>562.0</ele><time>2026-05-03T16:35:39.986Z</time></trkpt><trkpt lat="39.07351" lon="16.222595"><ele>562.0</ele><time>2026-05-03T16:35:40.989Z</time></trkpt><trkpt lat="39.0734233" lon="16.2225133"><ele>562.0</ele><time>2026-05-03T16:35:41.989Z</time></trkpt><trkpt lat="39.073335" lon="16.2224267"><ele>562.0</ele><time>2026-05-03T16:35:42.987Z</time></trkpt><trkpt lat="39.073245" lon="16.22234"><ele>566.25</ele><time>2026-05-03T16:35:43.988Z</time></trkpt><trkpt lat="39.0731517" lon="16.2222483"><ele>570.5</ele><time>2026-05-03T16:35:44.982Z</time></trkpt><trkpt lat="39.0730683" lon="16.2221483"><ele>574.75</ele><time>2026-05-03T16:35:45.985Z</time></trkpt><trkpt lat="39.0729833" lon="16.2220433"><ele>579.0</ele><time>2026-05-03T16:35:46.989Z</time></trkpt><trkpt lat="39.0728867" lon="16.2219417"><ele>579.0</ele><time>2026-05-03T16:35:47.98Z</time></trkpt><trkpt lat="39.0727933" lon="16.2218367"><ele>579.0</ele><time>2026-05-03T16:35:48.99Z</time></trkpt><trkpt lat="39.07271" lon="16.22171"><ele>579.0</ele><time>2026-05-03T16:35:49.989Z</time></trkpt><trkpt lat="39.0726267" lon="16.2216017"><ele>579.0</ele><time>2026-05-03T16:35:50.989Z</time></trkpt><trkpt lat="39.0725483" lon="16.221495"><ele>581.2</ele><time>2026-05-03T16:35:51.987Z</time></trkpt><trkpt lat="39.0724567" lon="16.221405"><ele>583.4</ele><time>2026-05-03T16:35:52.988Z</time></trkpt><trkpt lat="39.0723717" lon="16.22132"><ele>585.6</ele><time>2026-05-03T16:35:53.988Z</time></trkpt><trkpt lat="39.072295" lon="16.22123"><ele>587.8</ele><time>2026-05-03T16:35:54.99Z</time></trkpt><trkpt lat="39.0722317" lon="16.2211517"><ele>590.0</ele><time>2026-05-03T16:35:55.992Z</time></trkpt><trkpt lat="39.072175" lon="16.2210933"><ele>590.0</ele><time>2026-05-03T16:35:56.981Z</time></trkpt><trkpt lat="39.072075" lon="16.221055"><ele>590.0</ele><time>2026-05-03T16:35:58.988Z</time></trkpt><trkpt lat="39.0720117" lon="16.2210267"><ele>590.0</ele><time>2026-05-03T16:35:59.989Z</time></trkpt><trkpt lat="39.0719483" lon="16.2210767"><ele>590.0</ele><time>2026-05-03T16:36:00.987Z</time></trkpt><trkpt lat="39.07193" lon="16.2212083"><ele>590.0</ele><time>2026-05-03T16:36:03.988Z</time></trkpt><trkpt lat="39.07194" lon="16.22129"><ele>590.0</ele><time>2026-05-03T16:36:04.989Z</time></trkpt><trkpt lat="39.0719883" lon="16.221375"><ele>590.0</ele><time>2026-05-03T16:36:05.989Z</time></trkpt><trkpt lat="39.0720733" lon="16.2214833"><ele>590.0</ele><time>2026-05-03T16:36:07.989Z</time></trkpt><trkpt lat="39.0721733" lon="16.2215333"><ele>590.0</ele><time>2026-05-03T16:36:09.988Z</time></trkpt><trkpt lat="39.0722417" lon="16.221495"><ele>590.0</ele><time>2026-05-03T16:36:13.99Z</time></trkpt><trkpt lat="39.0722117" lon="16.2214117"><ele>590.0</ele><time>2026-05-03T16:36:15.986Z</time></trkpt><trkpt lat="39.0721667" lon="16.2213467"><ele>590.0</ele><time>2026-05-03T16:36:16.979Z</time></trkpt><trkpt lat="39.072115" lon="16.22126"><ele>590.0</ele><time>2026-05-03T16:36:17.98Z</time></trkpt><trkpt lat="39.07206" lon="16.221165"><ele>590.0</ele><time>2026-05-03T16:36:18.987Z</time></trkpt><trkpt lat="39.0719933" lon="16.2210617"><ele>590.0</ele><time>2026-05-03T16:36:19.989Z</time></trkpt><trkpt lat="39.0719283" lon="16.2209633"><ele>590.0</ele><time>2026-05-03T16:36:20.989Z</time></trkpt><trkpt lat="39.0718517" lon="16.2208383"><ele>590.0</ele><time>2026-05-03T16:36:21.987Z</time></trkpt><trkpt lat="39.0717733" lon="16.22072"><ele>591.75</ele><time>2026-05-03T16:36:22.99Z</time></trkpt><trkpt lat="39.071685" lon="16.2206017"><ele>593.5</ele><time>2026-05-03T16:36:23.986Z</time></trkpt><trkpt lat="39.071595" lon="16.22049"><ele>595.25</ele><time>2026-05-03T16:36:24.988Z</time></trkpt><trkpt lat="39.0714767" lon="16.220385"><ele>597.0</ele><time>2026-05-03T16:36:25.989Z</time></trkpt><trkpt lat="39.0713467" lon="16.220285"><ele>597.0</ele><time>2026-05-03T16:36:26.99Z</time></trkpt><trkpt lat="39.071205" lon="16.2201967"><ele>597.0</ele><time>2026-05-03T16:36:27.986Z</time></trkpt><trkpt lat="39.0710567" lon="16.2201117"><ele>597.0</ele><time>2026-05-03T16:36:28.99Z</time></trkpt><trkpt lat="39.070915" lon="16.220015"><ele>597.0</ele><time>2026-05-03T16:36:29.988Z</time></trkpt><trkpt lat="39.0707883" lon="16.2199033"><ele>597.0</ele><time>2026-05-03T16:36:30.99Z</time></trkpt><trkpt lat="39.0706733" lon="16.21977"><ele>597.0</ele><time>2026-05-03T16:36:31.98Z</time></trkpt><trkpt lat="39.0705833" lon="16.2196117"><ele>605.0</ele><time>2026-05-03T16:36:32.988Z</time></trkpt><trkpt lat="39.0705133" lon="16.219435"><ele>613.0</ele><time>2026-05-03T16:36:33.987Z</time></trkpt><trkpt lat="39.0704567" lon="16.2192433"><ele>621.0</ele><time>2026-05-03T16:36:34.98Z</time></trkpt><trkpt lat="39.0704117" lon="16.2190467"><ele>618.3333333333334</ele><time>2026-05-03T16:36:35.981Z</time></trkpt><trkpt lat="39.0703583" lon="16.2188467"><ele>615.6666666666667</ele><time>2026-05-03T16:36:36.989Z</time></trkpt><trkpt lat="39.070335" lon="16.218625"><ele>613.0</ele><time>2026-05-03T16:36:37.99Z</time></trkpt><trkpt lat="39.07032" lon="16.2183967"><ele>613.0</ele><time>2026-05-03T16:36:38.989Z</time></trkpt><trkpt lat="39.0703067" lon="16.2181667"><ele>613.0</ele><time>2026-05-03T16:36:39.986Z</time></trkpt><trkpt lat="39.070275" lon="16.2179467"><ele>613.0</ele><time>2026-05-03T16:36:40.988Z</time></trkpt><trkpt lat="39.07023" lon="16.2177267"><ele>613.0</ele><time>2026-05-03T16:36:41.988Z</time></trkpt><trkpt lat="39.070175" lon="16.2175217"><ele>613.0</ele><time>2026-05-03T16:36:42.987Z</time></trkpt><trkpt lat="39.070115" lon="16.2173133"><ele>613.0</ele><time>2026-05-03T16:36:43.99Z</time></trkpt><trkpt lat="39.0700667" lon="16.2171117"><ele>613.0</ele><time>2026-05-03T16:36:44.987Z</time></trkpt><trkpt lat="39.0700183" lon="16.2169233"><ele>613.0</ele><time>2026-05-03T16:36:45.986Z</time></trkpt><trkpt lat="39.069965" lon="16.21673"><ele>613.0</ele><time>2026-05-03T16:36:46.988Z</time></trkpt><trkpt lat="39.069915" lon="16.2165283"><ele>622.6666666666667</ele><time>2026-05-03T16:36:47.989Z</time></trkpt><trkpt lat="39.0698633" lon="16.2163233"><ele>632.3333333333334</ele><time>2026-05-03T16:36:48.989Z</time></trkpt><trkpt lat="39.0698183" lon="16.2161067"><ele>642.0</ele><time>2026-05-03T16:36:49.978Z</time></trkpt><trkpt lat="39.0697717" lon="16.2158967"><ele>642.0</ele><time>2026-05-03T16:36:50.989Z</time></trkpt><trkpt lat="39.069715" lon="16.21569"><ele>642.0</ele><time>2026-05-03T16:36:51.986Z</time></trkpt><trkpt lat="39.0696533" lon="16.215495"><ele>642.0</ele><time>2026-05-03T16:36:52.989Z</time></trkpt><trkpt lat="39.06958" lon="16.2153017"><ele>638.3333333333334</ele><time>2026-05-03T16:36:53.989Z</time></trkpt><trkpt lat="39.0695017" lon="16.2151033"><ele>634.6666666666667</ele><time>2026-05-03T16:36:54.988Z</time></trkpt><trkpt lat="39.0694333" lon="16.2149"><ele>631.0</ele><time>2026-05-03T16:36:55.99Z</time></trkpt><trkpt lat="39.069375" lon="16.2146883"><ele>624.6666666666667</ele><time>2026-05-03T16:36:56.989Z</time></trkpt><trkpt lat="39.0693083" lon="16.21448"><ele>618.3333333333334</ele><time>2026-05-03T16:36:57.979Z</time></trkpt><trkpt lat="39.0692217" lon="16.2142933"><ele>612.0</ele><time>2026-05-03T16:36:58.988Z</time></trkpt><trkpt lat="39.0691133" lon="16.214125"><ele>615.3333333333334</ele><time>2026-05-03T16:36:59.981Z</time></trkpt><trkpt lat="39.068975" lon="16.2139983"><ele>618.6666666666667</ele><time>2026-05-03T16:37:00.981Z</time></trkpt><trkpt lat="39.0688317" lon="16.2139"><ele>622.0</ele><time>2026-05-03T16:37:01.981Z</time></trkpt><trkpt lat="39.06868" lon="16.213845"><ele>622.0</ele><time>2026-05-03T16:37:02.98Z</time></trkpt><trkpt lat="39.0685383" lon="16.21383"><ele>622.0</ele><time>2026-05-03T16:37:03.986Z</time></trkpt><trkpt lat="39.0684083" lon="16.2138"><ele>622.0</ele><time>2026-05-03T16:37:04.979Z</time></trkpt><trkpt lat="39.0682833" lon="16.21373"><ele>622.0</ele><time>2026-05-03T16:37:05.987Z</time></trkpt><trkpt lat="39.0681817" lon="16.2136117"><ele>624.5</ele><time>2026-05-03T16:37:06.991Z</time></trkpt><trkpt lat="39.0681217" lon="16.2134517"><ele>627.0</ele><time>2026-05-03T16:37:07.98Z</time></trkpt><trkpt lat="39.0680833" lon="16.2132667"><ele>629.5</ele><time>2026-05-03T16:37:08.984Z</time></trkpt><trkpt lat="39.068075" lon="16.2130667"><ele>632.0</ele><time>2026-05-03T16:37:09.986Z</time></trkpt><trkpt lat="39.0680767" lon="16.212865"><ele>632.0</ele><time>2026-05-03T16:37:10.98Z</time></trkpt><trkpt lat="39.0680433" lon="16.2126917"><ele>632.0</ele><time>2026-05-03T16:37:11.98Z</time></trkpt><trkpt lat="39.067985" lon="16.212535"><ele>632.0</ele><time>2026-05-03T16:37:12.99Z</time></trkpt><trkpt lat="39.0678967" lon="16.2124033"><ele>632.0</ele><time>2026-05-03T16:37:13.989Z</time></trkpt><trkpt lat="39.0677667" lon="16.2123083"><ele>634.6666666666666</ele><time>2026-05-03T16:37:14.981Z</time></trkpt><trkpt lat="39.06762" lon="16.2122167"><ele>637.3333333333334</ele><time>2026-05-03T16:37:15.98Z</time></trkpt><trkpt lat="39.0674883" lon="16.2121267"><ele>640.0</ele><time>2026-05-03T16:37:16.98Z</time></trkpt><trkpt lat="39.0673483" lon="16.2120867"><ele>640.0</ele><time>2026-05-03T16:37:17.987Z</time></trkpt><trkpt lat="39.0672267" lon="16.2120683"><ele>640.0</ele><time>2026-05-03T16:37:18.988Z</time></trkpt><trkpt lat="39.0671317" lon="16.2120683"><ele>640.0</ele><time>2026-05-03T16:37:19.988Z</time></trkpt><trkpt lat="39.0670583" lon="16.212075"><ele>640.0</ele><time>2026-05-03T16:37:20.99Z</time></trkpt><trkpt lat="39.0669767" lon="16.2121717"><ele>640.0</ele><time>2026-05-03T16:37:22.988Z</time></trkpt><trkpt lat="39.0669183" lon="16.2123283"><ele>641.3333333333334</ele><time>2026-05-03T16:37:24.989Z</time></trkpt><trkpt lat="39.0669017" lon="16.2124067"><ele>642.6666666666667</ele><time>2026-05-03T16:37:25.988Z</time></trkpt><trkpt lat="39.0669267" lon="16.21256"><ele>644.0</ele><time>2026-05-03T16:37:27.98Z</time></trkpt><trkpt lat="39.066965" lon="16.212645"><ele>645.3333333333334</ele><time>2026-05-03T16:37:28.981Z</time></trkpt><trkpt lat="39.0670117" lon="16.2127217"><ele>646.6666666666666</ele><time>2026-05-03T16:37:29.987Z</time></trkpt><trkpt lat="39.067065" lon="16.2127983"><ele>648.0</ele><time>2026-05-03T16:37:30.988Z</time></trkpt><trkpt lat="39.0671133" lon="16.2128783"><ele>648.0</ele><time>2026-05-03T16:37:31.988Z</time></trkpt><trkpt lat="39.067165" lon="16.212955"><ele>648.0</ele><time>2026-05-03T16:37:32.98Z</time></trkpt><trkpt lat="39.0672133" lon="16.21303"><ele>648.0</ele><time>2026-05-03T16:37:33.98Z</time></trkpt><trkpt lat="39.0672717" lon="16.2130967"><ele>648.0</ele><time>2026-05-03T16:37:34.989Z</time></trkpt><trkpt lat="39.067335" lon="16.2131617"><ele>648.0</ele><time>2026-05-03T16:37:35.985Z</time></trkpt><trkpt lat="39.0673917" lon="16.2132367"><ele>648.0</ele><time>2026-05-03T16:37:36.988Z</time></trkpt><trkpt lat="39.067445" lon="16.2133133"><ele>648.5999999999999</ele><time>2026-05-03T16:37:37.988Z</time></trkpt><trkpt lat="39.067485" lon="16.213385"><ele>649.1999999999999</ele><time>2026-05-03T16:37:38.988Z</time></trkpt><trkpt lat="39.0675067" lon="16.2135367"><ele>649.8</ele><time>2026-05-03T16:37:40.98Z</time></trkpt><trkpt lat="39.0674867" lon="16.2136883"><ele>650.4</ele><time>2026-05-03T16:37:42.988Z</time></trkpt><trkpt lat="39.0674817" lon="16.213855"><ele>651.0</ele><time>2026-05-03T16:37:44.981Z</time></trkpt><trkpt lat="39.06749" lon="16.2139567"><ele>653.5</ele><time>2026-05-03T16:37:45.987Z</time></trkpt><trkpt lat="39.06751" lon="16.2140733"><ele>656.0</ele><time>2026-05-03T16:37:46.989Z</time></trkpt><trkpt lat="39.06752" lon="16.21418"><ele>658.5</ele><time>2026-05-03T16:37:47.989Z</time></trkpt><trkpt lat="39.0675383" lon="16.214275"><ele>661.0</ele><time>2026-05-03T16:37:48.981Z</time></trkpt><trkpt lat="39.0675367" lon="16.2143883"><ele>663.5</ele><time>2026-05-03T16:37:50.99Z</time></trkpt><trkpt lat="39.067475" lon="16.2143683"><ele>666.0</ele><time>2026-05-03T16:37:52.988Z</time></trkpt><trkpt lat="39.0674167" lon="16.2143283"><ele>667.5</ele><time>2026-05-03T16:37:53.981Z</time></trkpt><trkpt lat="39.067315" lon="16.2142767"><ele>669.0</ele><time>2026-05-03T16:37:55.989Z</time></trkpt><trkpt lat="39.0672383" lon="16.214225"><ele>670.5</ele><time>2026-05-03T16:37:57.981Z</time></trkpt><trkpt lat="39.0671467" lon="16.2141717"><ele>672.0</ele><time>2026-05-03T16:37:59.99Z</time></trkpt><trkpt lat="39.0670783" lon="16.2141433"><ele>673.5</ele><time>2026-05-03T16:38:02.99Z</time></trkpt><trkpt lat="39.067055" lon="16.21422"><ele>675.0</ele><time>2026-05-03T16:38:05.979Z</time></trkpt><trkpt lat="39.0671183" lon="16.21428"><ele>675.0</ele><time>2026-05-03T16:38:07.981Z</time></trkpt><trkpt lat="39.0671967" lon="16.21434"><ele>675.0</ele><time>2026-05-03T16:38:09.986Z</time></trkpt><trkpt lat="39.0672867" lon="16.2144267"><ele>675.0</ele><time>2026-05-03T16:38:11.988Z</time></trkpt><trkpt lat="39.0673267" lon="16.214495"><ele>675.0</ele><time>2026-05-03T16:38:12.989Z</time></trkpt><trkpt lat="39.0673683" lon="16.2145733"><ele>675.0</ele><time>2026-05-03T16:38:13.988Z</time></trkpt><trkpt lat="39.0673967" lon="16.2146733"><ele>675.0</ele><time>2026-05-03T16:38:14.98Z</time></trkpt><trkpt lat="39.0674183" lon="16.2147933"><ele>678.25</ele><time>2026-05-03T16:38:15.988Z</time></trkpt><trkpt lat="39.0674367" lon="16.2149467"><ele>681.5</ele><time>2026-05-03T16:38:16.988Z</time></trkpt><trkpt lat="39.0674317" lon="16.2151317"><ele>684.75</ele><time>2026-05-03T16:38:17.988Z</time></trkpt><trkpt lat="39.0674283" lon="16.21533"><ele>688.0</ele><time>2026-05-03T16:38:18.989Z</time></trkpt><trkpt lat="39.067435" lon="16.2155083"><ele>690.5999999999999</ele><time>2026-05-03T16:38:19.989Z</time></trkpt><trkpt lat="39.0674333" lon="16.2156617"><ele>693.1999999999999</ele><time>2026-05-03T16:38:20.989Z</time></trkpt><trkpt lat="39.06743" lon="16.2157833"><ele>695.8</ele><time>2026-05-03T16:38:21.981Z</time></trkpt><trkpt lat="39.067415" lon="16.2158767"><ele>698.4</ele><time>2026-05-03T16:38:22.991Z</time></trkpt><trkpt lat="39.067375" lon="16.2159833"><ele>701.0</ele><time>2026-05-03T16:38:24.988Z</time></trkpt><trkpt lat="39.06728" lon="16.2160083"><ele>701.0</ele><time>2026-05-03T16:38:26.991Z</time></trkpt><trkpt lat="39.0672017" lon="16.215995"><ele>701.0</ele><time>2026-05-03T16:38:27.98Z</time></trkpt><trkpt lat="39.067095" lon="16.2159067"><ele>701.0</ele><time>2026-05-03T16:38:29.988Z</time></trkpt><trkpt lat="39.0670383" lon="16.2158567"><ele>701.0</ele><time>2026-05-03T16:38:30.987Z</time></trkpt><trkpt lat="39.0669567" lon="16.2158367"><ele>701.0</ele><time>2026-05-03T16:38:32.989Z</time></trkpt><trkpt lat="39.0669133" lon="16.21591"><ele>701.0</ele><time>2026-05-03T16:38:34.988Z</time></trkpt><trkpt lat="39.066895" lon="16.2160667"><ele>701.0</ele><time>2026-05-03T16:38:36.989Z</time></trkpt><trkpt lat="39.0668933" lon="16.2161733"><ele>701.0</ele><time>2026-05-03T16:38:37.981Z</time></trkpt><trkpt lat="39.0668867" lon="16.21629"><ele>701.0</ele><time>2026-05-03T16:38:38.98Z</time></trkpt><trkpt lat="39.0668667" lon="16.2164233"><ele>701.0</ele><time>2026-05-03T16:38:39.989Z</time></trkpt><trkpt lat="39.0668567" lon="16.2165383"><ele>701.0</ele><time>2026-05-03T16:38:40.988Z</time></trkpt><trkpt lat="39.0668533" lon="16.21665"><ele>702.5</ele><time>2026-05-03T16:38:41.989Z</time></trkpt><trkpt lat="39.0668617" lon="16.2167817"><ele>704.0</ele><time>2026-05-03T16:38:42.989Z</time></trkpt><trkpt lat="39.066875" lon="16.2168917"><ele>705.5</ele><time>2026-05-03T16:38:43.98Z</time></trkpt><trkpt lat="39.06688" lon="16.2169983"><ele>707.0</ele><time>2026-05-03T16:38:44.991Z</time></trkpt><trkpt lat="39.06687" lon="16.2170983"><ele>708.5</ele><time>2026-05-03T16:38:45.99Z</time></trkpt><trkpt lat="39.066825" lon="16.2171967"><ele>710.0</ele><time>2026-05-03T16:38:46.989Z</time></trkpt><trkpt lat="39.0667467" lon="16.21726"><ele>710.0</ele><time>2026-05-03T16:38:47.99Z</time></trkpt><trkpt lat="39.0666533" lon="16.2173167"><ele>710.0</ele><time>2026-05-03T16:38:48.982Z</time></trkpt><trkpt lat="39.0665733" lon="16.2174133"><ele>710.0</ele><time>2026-05-03T16:38:49.98Z</time></trkpt><trkpt lat="39.0664883" lon="16.2175167"><ele>710.0</ele><time>2026-05-03T16:38:50.989Z</time></trkpt><trkpt lat="39.0663467" lon="16.2176183"><ele>716.2</ele><time>2026-05-03T16:38:51.981Z</time></trkpt><trkpt lat="39.0662667" lon="16.2176883"><ele>722.4</ele><time>2026-05-03T16:38:52.989Z</time></trkpt><trkpt lat="39.0661483" lon="16.217775"><ele>728.5999999999999</ele><time>2026-05-03T16:38:53.989Z</time></trkpt><trkpt lat="39.0660433" lon="16.21783"><ele>734.8</ele><time>2026-05-03T16:38:54.99Z</time></trkpt><trkpt lat="39.065955" lon="16.2178533"><ele>741.0</ele><time>2026-05-03T16:38:55.989Z</time></trkpt><trkpt lat="39.0658733" lon="16.2178667"><ele>741.0</ele><time>2026-05-03T16:38:56.989Z</time></trkpt><trkpt lat="39.065805" lon="16.217845"><ele>741.0</ele><time>2026-05-03T16:38:57.986Z</time></trkpt><trkpt lat="39.0657317" lon="16.217845"><ele>741.0</ele><time>2026-05-03T16:38:58.988Z</time></trkpt><trkpt lat="39.06565" lon="16.2178083"><ele>741.0</ele><time>2026-05-03T16:38:59.989Z</time></trkpt><trkpt lat="39.06559" lon="16.2177533"><ele>741.0</ele><time>2026-05-03T16:39:00.989Z</time></trkpt><trkpt lat="39.0655283" lon="16.2176583"><ele>741.0</ele><time>2026-05-03T16:39:01.989Z</time></trkpt><trkpt lat="39.0654967" lon="16.2175433"><ele>743.3333333333334</ele><time>2026-05-03T16:39:02.981Z</time></trkpt><trkpt lat="39.065465" lon="16.2174417"><ele>745.6666666666666</ele><time>2026-05-03T16:39:03.985Z</time></trkpt><trkpt lat="39.06543" lon="16.2173533"><ele>748.0</ele><time>2026-05-03T16:39:04.988Z</time></trkpt><trkpt lat="39.0653967" lon="16.2172767"><ele>750.3333333333333</ele><time>2026-05-03T16:39:05.986Z</time></trkpt><trkpt lat="39.06536" lon="16.2171983"><ele>752.6666666666666</ele><time>2026-05-03T16:39:06.989Z</time></trkpt><trkpt lat="39.065295" lon="16.2170783"><ele>755.0</ele><time>2026-05-03T16:39:08.98Z</time></trkpt><trkpt lat="39.0652417" lon="16.2171533"><ele>755.0</ele><time>2026-05-03T16:39:12.982Z</time></trkpt><trkpt lat="39.0652383" lon="16.2172417"><ele>755.0</ele><time>2026-05-03T16:39:13.989Z</time></trkpt><trkpt lat="39.0652417" lon="16.217345"><ele>755.0</ele><time>2026-05-03T16:39:14.981Z</time></trkpt><trkpt lat="39.065255" lon="16.217485"><ele>755.0</ele><time>2026-05-03T16:39:15.987Z</time></trkpt><trkpt lat="39.0652833" lon="16.21763"><ele>755.0</ele><time>2026-05-03T16:39:16.988Z</time></trkpt><trkpt lat="39.0653033" lon="16.2177367"><ele>757.6</ele><time>2026-05-03T16:39:17.988Z</time></trkpt><trkpt lat="39.0653167" lon="16.217825"><ele>760.2</ele><time>2026-05-03T16:39:18.982Z</time></trkpt><trkpt lat="39.0653" lon="16.2179283"><ele>762.8</ele><time>2026-05-03T16:39:20.991Z</time></trkpt><trkpt lat="39.0652183" lon="16.2178433"><ele>765.4</ele><time>2026-05-03T16:39:22.988Z</time></trkpt><trkpt lat="39.06515" lon="16.2177633"><ele>768.0</ele><time>2026-05-03T16:39:23.981Z</time></trkpt><trkpt lat="39.06508" lon="16.2176133"><ele>768.0</ele><time>2026-05-03T16:39:24.979Z</time></trkpt><trkpt lat="39.0650317" lon="16.21748"><ele>768.0</ele><time>2026-05-03T16:39:25.989Z</time></trkpt><trkpt lat="39.0650167" lon="16.2172983"><ele>768.0</ele><time>2026-05-03T16:39:26.989Z</time></trkpt><trkpt lat="39.0649933" lon="16.217195"><ele>768.0</ele><time>2026-05-03T16:39:27.988Z</time></trkpt><trkpt lat="39.0649667" lon="16.2171083"><ele>768.0</ele><time>2026-05-03T16:39:28.981Z</time></trkpt><trkpt lat="39.0649517" lon="16.2172283"><ele>768.0</ele><time>2026-05-03T16:39:39.98Z</time></trkpt><trkpt lat="39.0649683" lon="16.2173217"><ele>768.0</ele><time>2026-05-03T16:39:40.98Z</time></trkpt><trkpt lat="39.064985" lon="16.2174317"><ele>768.0</ele><time>2026-05-03T16:39:41.988Z</time></trkpt><trkpt lat="39.0650033" lon="16.2175633"><ele>768.0</ele><time>2026-05-03T16:39:42.99Z</time></trkpt><trkpt lat="39.0650183" lon="16.2177167"><ele>768.0</ele><time>2026-05-03T16:39:43.99Z</time></trkpt><trkpt lat="39.0650233" lon="16.2178883"><ele>768.0</ele><time>2026-05-03T16:39:44.98Z</time></trkpt><trkpt lat="39.0650233" lon="16.2180517"><ele>768.0</ele><time>2026-05-03T16:39:45.988Z</time></trkpt><trkpt lat="39.0650167" lon="16.2181967"><ele>768.0</ele><time>2026-05-03T16:39:46.989Z</time></trkpt><trkpt lat="39.0650083" lon="16.2183183"><ele>768.0</ele><time>2026-05-03T16:39:47.989Z</time></trkpt><trkpt lat="39.0650067" lon="16.2184267"><ele>768.0</ele><time>2026-05-03T16:39:48.982Z</time></trkpt><trkpt lat="39.065015" lon="16.2185383"><ele>769.25</ele><time>2026-05-03T16:39:49.99Z</time></trkpt><trkpt lat="39.06504" lon="16.21866"><ele>770.5</ele><time>2026-05-03T16:39:50.989Z</time></trkpt><trkpt lat="39.0650583" lon="16.2188067"><ele>771.75</ele><time>2026-05-03T16:39:51.979Z</time></trkpt><trkpt lat="39.065075" lon="16.2189767"><ele>773.0</ele><time>2026-05-03T16:39:52.989Z</time></trkpt><trkpt lat="39.0650783" lon="16.21914"><ele>775.25</ele><time>2026-05-03T16:39:53.99Z</time></trkpt><trkpt lat="39.0650567" lon="16.2192883"><ele>777.5</ele><time>2026-05-03T16:39:54.989Z</time></trkpt><trkpt lat="39.0650267" lon="16.2194517"><ele>779.75</ele><time>2026-05-03T16:39:55.981Z</time></trkpt><trkpt lat="39.0649967" lon="16.2196217"><ele>782.0</ele><time>2026-05-03T16:39:56.981Z</time></trkpt><trkpt lat="39.0649583" lon="16.2197783"><ele>780.2</ele><time>2026-05-03T16:39:57.989Z</time></trkpt><trkpt lat="39.06493" lon="16.2199183"><ele>778.4000000000001</ele><time>2026-05-03T16:39:58.988Z</time></trkpt><trkpt lat="39.0649" lon="16.220045"><ele>776.5999999999999</ele><time>2026-05-03T16:39:59.989Z</time></trkpt><trkpt lat="39.0648583" lon="16.220155"><ele>774.8</ele><time>2026-05-03T16:40:00.981Z</time></trkpt><trkpt lat="39.0648067" lon="16.2202617"><ele>773.0</ele><time>2026-05-03T16:40:01.991Z</time></trkpt><trkpt lat="39.0647583" lon="16.2203617"><ele>773.0</ele><time>2026-05-03T16:40:02.99Z</time></trkpt><trkpt lat="39.06472" lon="16.2204633"><ele>773.0</ele><time>2026-05-03T16:40:03.99Z</time></trkpt><trkpt lat="39.0647" lon="16.220585"><ele>773.0</ele><time>2026-05-03T16:40:04.99Z</time></trkpt><trkpt lat="39.0646983" lon="16.2207133"><ele>773.0</ele><time>2026-05-03T16:40:05.99Z</time></trkpt><trkpt lat="39.0646983" lon="16.22084"><ele>773.0</ele><time>2026-05-03T16:40:06.987Z</time></trkpt><trkpt lat="39.0647133" lon="16.2209683"><ele>777.0</ele><time>2026-05-03T16:40:07.99Z</time></trkpt><trkpt lat="39.0647233" lon="16.2211"><ele>781.0</ele><time>2026-05-03T16:40:08.981Z</time></trkpt><trkpt lat="39.0647167" lon="16.2212567"><ele>785.0</ele><time>2026-05-03T16:40:09.981Z</time></trkpt><trkpt lat="39.0647033" lon="16.2214283"><ele>789.0</ele><time>2026-05-03T16:40:10.989Z</time></trkpt><trkpt lat="39.0646933" lon="16.2215967"><ele>794.0</ele><time>2026-05-03T16:40:11.992Z</time></trkpt><trkpt lat="39.0646783" lon="16.221755"><ele>799.0</ele><time>2026-05-03T16:40:12.981Z</time></trkpt><trkpt lat="39.06464" lon="16.2218767"><ele>804.0</ele><time>2026-05-03T16:40:13.99Z</time></trkpt><trkpt lat="39.0645833" lon="16.2219817"><ele>809.0</ele><time>2026-05-03T16:40:14.978Z</time></trkpt><trkpt lat="39.0645333" lon="16.2220683"><ele>814.0</ele><time>2026-05-03T16:40:15.988Z</time></trkpt><trkpt lat="39.064505" lon="16.222145"><ele>814.0</ele><time>2026-05-03T16:40:16.988Z</time></trkpt><trkpt lat="39.0644817" lon="16.2222617"><ele>814.0</ele><time>2026-05-03T16:40:18.991Z</time></trkpt><trkpt lat="39.0645267" lon="16.2223583"><ele>814.0</ele><time>2026-05-03T16:40:20.981Z</time></trkpt><trkpt lat="39.0646117" lon="16.2224983"><ele>814.0</ele><time>2026-05-03T16:40:22.988Z</time></trkpt><trkpt lat="39.0646817" lon="16.2225733"><ele>814.0</ele><time>2026-05-03T16:40:23.99Z</time></trkpt><trkpt lat="39.0647817" lon="16.2226433"><ele>819.6</ele><time>2026-05-03T16:40:24.987Z</time></trkpt><trkpt lat="39.0648933" lon="16.2226833"><ele>825.2</ele><time>2026-05-03T16:40:25.988Z</time></trkpt><trkpt lat="39.0650133" lon="16.2227083"><ele>830.8000000000001</ele><time>2026-05-03T16:40:26.988Z</time></trkpt><trkpt lat="39.065095" lon="16.22275"><ele>836.4000000000001</ele><time>2026-05-03T16:40:27.986Z</time></trkpt><trkpt lat="39.0651683" lon="16.2227917"><ele>842.0</ele><time>2026-05-03T16:40:28.98Z</time></trkpt><trkpt lat="39.0652233" lon="16.2228617"><ele>842.0000000000001</ele><time>2026-05-03T16:40:30.989Z</time></trkpt><trkpt lat="39.06518" lon="16.22294"><ele>842.0</ele><time>2026-05-03T16:40:50.989Z</time></trkpt><trkpt lat="39.0651433" lon="16.223015"><ele>842.0</ele><time>2026-05-03T16:40:52.99Z</time></trkpt><trkpt lat="39.0650567" lon="16.223135"><ele>842.0</ele><time>2026-05-03T16:40:54.987Z</time></trkpt><trkpt lat="39.0650133" lon="16.2232117"><ele>842.0000000000001</ele><time>2026-05-03T16:40:55.989Z</time></trkpt><trkpt lat="39.0649733" lon="16.2232983"><ele>842.0</ele><time>2026-05-03T16:40:56.99Z</time></trkpt><trkpt lat="39.064945" lon="16.223395"><ele>846.3333333333334</ele><time>2026-05-03T16:40:57.988Z</time></trkpt><trkpt lat="39.0649233" lon="16.2235033"><ele>850.6666666666667</ele><time>2026-05-03T16:40:58.991Z</time></trkpt><trkpt lat="39.0649" lon="16.2236233"><ele>855.0</ele><time>2026-05-03T16:40:59.981Z</time></trkpt><trkpt lat="39.0648767" lon="16.2237433"><ele>859.3333333333333</ele><time>2026-05-03T16:41:00.981Z</time></trkpt><trkpt lat="39.06485" lon="16.2238467"><ele>863.6666666666666</ele><time>2026-05-03T16:41:01.987Z</time></trkpt><trkpt lat="39.06482" lon="16.2239233"><ele>868.0</ele><time>2026-05-03T16:41:02.991Z</time></trkpt><trkpt lat="39.064785" lon="16.2239967"><ele>871.2</ele><time>2026-05-03T16:41:03.987Z</time></trkpt><trkpt lat="39.0647517" lon="16.2240717"><ele>874.4</ele><time>2026-05-03T16:41:04.99Z</time></trkpt><trkpt lat="39.0647167" lon="16.2241717"><ele>877.6000000000001</ele><time>2026-05-03T16:41:05.981Z</time></trkpt><trkpt lat="39.064685" lon="16.2242917"><ele>880.8000000000001</ele><time>2026-05-03T16:41:06.993Z</time></trkpt><trkpt lat="39.0646533" lon="16.2244183"><ele>884.0</ele><time>2026-05-03T16:41:07.99Z</time></trkpt><trkpt lat="39.0646183" lon="16.224535"><ele>884.0</ele><time>2026-05-03T16:41:08.988Z</time></trkpt><trkpt lat="39.064585" lon="16.2246367"><ele>884.0000000000001</ele><time>2026-05-03T16:41:09.981Z</time></trkpt><trkpt lat="39.064535" lon="16.2247217"><ele>884.0000000000001</ele><time>2026-05-03T16:41:10.99Z</time></trkpt><trkpt lat="39.0644783" lon="16.2248183"><ele>884.0</ele><time>2026-05-03T16:41:11.99Z</time></trkpt><trkpt lat="39.064415" lon="16.2249167"><ele>884.0</ele><time>2026-05-03T16:41:12.993Z</time></trkpt><trkpt lat="39.0643367" lon="16.2250217"><ele>884.6</ele><time>2026-05-03T16:41:13.99Z</time></trkpt><trkpt lat="39.0642683" lon="16.22512"><ele>885.2</ele><time>2026-05-03T16:41:14.989Z</time></trkpt><trkpt lat="39.0642217" lon="16.2252333"><ele>885.8000000000001</ele><time>2026-05-03T16:41:15.987Z</time></trkpt><trkpt lat="39.06419" lon="16.2253533"><ele>886.4000000000001</ele><time>2026-05-03T16:41:16.989Z</time></trkpt><trkpt lat="39.0641683" lon="16.22548"><ele>887.0</ele><time>2026-05-03T16:41:17.988Z</time></trkpt><trkpt lat="39.064145" lon="16.2255933"><ele>887.0</ele><time>2026-05-03T16:41:18.989Z</time></trkpt><trkpt lat="39.0641283" lon="16.225695"><ele>887.0</ele><time>2026-05-03T16:41:19.981Z</time></trkpt><trkpt lat="39.06411" lon="16.225785"><ele>887.0</ele><time>2026-05-03T16:41:20.99Z</time></trkpt><trkpt lat="39.0640867" lon="16.2259317"><ele>887.0</ele><time>2026-05-03T16:41:22.981Z</time></trkpt><trkpt lat="39.064075" lon="16.2260867"><ele>887.0</ele><time>2026-05-03T16:41:24.989Z</time></trkpt><trkpt lat="39.064075" lon="16.22618"><ele>888.6666666666667</ele><time>2026-05-03T16:41:25.989Z</time></trkpt><trkpt lat="39.0640733" lon="16.226265"><ele>890.3333333333334</ele><time>2026-05-03T16:41:26.99Z</time></trkpt><trkpt lat="39.064045" lon="16.22638"><ele>892.0</ele><time>2026-05-03T16:41:28.989Z</time></trkpt><trkpt lat="39.0640367" lon="16.22647"><ele>893.6666666666667</ele><time>2026-05-03T16:41:31.989Z</time></trkpt><trkpt lat="39.0640383" lon="16.2265733"><ele>895.3333333333334</ele><time>2026-05-03T16:41:43.987Z</time></trkpt><trkpt lat="39.0640133" lon="16.2267167"><ele>897.0</ele><time>2026-05-03T16:41:45.984Z</time></trkpt><trkpt lat="39.063995" lon="16.226815"><ele>897.6</ele><time>2026-05-03T16:41:46.988Z</time></trkpt><trkpt lat="39.0639683" lon="16.22693"><ele>898.2</ele><time>2026-05-03T16:41:47.989Z</time></trkpt><trkpt lat="39.06395" lon="16.227045"><ele>898.8</ele><time>2026-05-03T16:41:48.989Z</time></trkpt><trkpt lat="39.0639183" lon="16.2271883"><ele>899.4</ele><time>2026-05-03T16:41:49.98Z</time></trkpt><trkpt lat="39.0638767" lon="16.2273317"><ele>900.0</ele><time>2026-05-03T16:41:50.981Z</time></trkpt><trkpt lat="39.0638517" lon="16.2274567"><ele>900.0</ele><time>2026-05-03T16:41:51.988Z</time></trkpt><trkpt lat="39.0638217" lon="16.2275583"><ele>900.0</ele><time>2026-05-03T16:41:52.988Z</time></trkpt><trkpt lat="39.0637883" lon="16.2276433"><ele>900.0</ele><time>2026-05-03T16:41:53.989Z</time></trkpt><trkpt lat="39.063745" lon="16.2277233"><ele>900.0</ele><time>2026-05-03T16:41:54.99Z</time></trkpt><trkpt lat="39.0636633" lon="16.22782"><ele>900.0</ele><time>2026-05-03T16:41:56.99Z</time></trkpt><trkpt lat="39.0635883" lon="16.227865"><ele>900.0</ele><time>2026-05-03T16:42:25.98Z</time></trkpt><trkpt lat="39.0634917" lon="16.2279317"><ele>900.0</ele><time>2026-05-03T16:42:27.989Z</time></trkpt><trkpt lat="39.0634417" lon="16.227985"><ele>900.0</ele><time>2026-05-03T16:42:28.988Z</time></trkpt><trkpt lat="39.06338" lon="16.2280683"><ele>900.0</ele><time>2026-05-03T16:42:29.99Z</time></trkpt><trkpt lat="39.06333" lon="16.22816"><ele>900.0</ele><time>2026-05-03T16:42:30.992Z</time></trkpt><trkpt lat="39.063275" lon="16.22828"><ele>900.0</ele><time>2026-05-03T16:42:31.989Z</time></trkpt><trkpt lat="39.0632383" lon="16.2283867"><ele>900.0</ele><time>2026-05-03T16:42:32.99Z</time></trkpt><trkpt lat="39.0632033" lon="16.2284833"><ele>900.5</ele><time>2026-05-03T16:42:33.99Z</time></trkpt><trkpt lat="39.06316" lon="16.2285667"><ele>901.0</ele><time>2026-05-03T16:42:34.989Z</time></trkpt><trkpt lat="39.0631033" lon="16.2286367"><ele>901.5</ele><time>2026-05-03T16:42:35.99Z</time></trkpt><trkpt lat="39.0630433" lon="16.2287033"><ele>902.0</ele><time>2026-05-03T16:42:36.989Z</time></trkpt><trkpt lat="39.0629767" lon="16.2287617"><ele>902.5</ele><time>2026-05-03T16:42:37.99Z</time></trkpt><trkpt lat="39.0629033" lon="16.22882"><ele>903.0</ele><time>2026-05-03T16:42:38.991Z</time></trkpt><trkpt lat="39.0628183" lon="16.2288617"><ele>903.0</ele><time>2026-05-03T16:42:39.988Z</time></trkpt><trkpt lat="39.0627417" lon="16.2289033"><ele>903.0</ele><time>2026-05-03T16:42:40.988Z</time></trkpt><trkpt lat="39.06264" lon="16.2289417"><ele>903.0</ele><time>2026-05-03T16:42:41.99Z</time></trkpt><trkpt lat="39.0625517" lon="16.2289533"><ele>903.0</ele><time>2026-05-03T16:42:42.982Z</time></trkpt><trkpt lat="39.0624733" lon="16.2289567"><ele>903.0</ele><time>2026-05-03T16:42:43.99Z</time></trkpt><trkpt lat="39.062395" lon="16.228945"><ele>903.0</ele><time>2026-05-03T16:42:44.984Z</time></trkpt><trkpt lat="39.0623217" lon="16.2289267"><ele>901.4</ele><time>2026-05-03T16:42:45.99Z</time></trkpt><trkpt lat="39.062225" lon="16.2288983"><ele>899.8</ele><time>2026-05-03T16:42:47.99Z</time></trkpt><trkpt lat="39.0621733" lon="16.2288"><ele>898.2</ele><time>2026-05-03T16:43:10.989Z</time></trkpt><trkpt lat="39.0621" lon="16.2286817"><ele>896.6</ele><time>2026-05-03T16:43:12.988Z</time></trkpt><trkpt lat="39.0620617" lon="16.22861"><ele>895.0</ele><time>2026-05-03T16:43:13.989Z</time></trkpt><trkpt lat="39.0620317" lon="16.2284867"><ele>894.9999999999999</ele><time>2026-05-03T16:43:15.989Z</time></trkpt><trkpt lat="39.0620633" lon="16.22837"><ele>895.0</ele><time>2026-05-03T16:43:17.981Z</time></trkpt><trkpt lat="39.062115" lon="16.2282583"><ele>895.0</ele><time>2026-05-03T16:43:19.992Z</time></trkpt><trkpt lat="39.0621683" lon="16.228165"><ele>895.0</ele><time>2026-05-03T16:43:21.987Z</time></trkpt><trkpt lat="39.0622233" lon="16.2280917"><ele>894.9999999999999</ele><time>2026-05-03T16:43:23.99Z</time></trkpt><trkpt lat="39.0622883" lon="16.2280467"><ele>895.0</ele><time>2026-05-03T16:43:26.991Z</time></trkpt><trkpt lat="39.0623617" lon="16.2280617"><ele>896.3333333333333</ele><time>2026-05-03T16:43:30.988Z</time></trkpt><trkpt lat="39.0624" lon="16.2279883"><ele>897.6666666666666</ele><time>2026-05-03T16:43:39.99Z</time></trkpt><trkpt lat="39.0624383" lon="16.2279133"><ele>899.0</ele><time>2026-05-03T16:43:44.99Z</time></trkpt><trkpt lat="39.0624967" lon="16.2278667"><ele>900.3333333333333</ele><time>2026-05-03T16:43:46.98Z</time></trkpt><trkpt lat="39.0625533" lon="16.2277733"><ele>901.6666666666666</ele><time>2026-05-03T16:43:48.99Z</time></trkpt><trkpt lat="39.0626017" lon="16.2276683"><ele>903.0</ele><time>2026-05-03T16:43:50.992Z</time></trkpt><trkpt lat="39.0626333" lon="16.2275583"><ele>903.0</ele><time>2026-05-03T16:43:52.988Z</time></trkpt><trkpt lat="39.06264" lon="16.2274383"><ele>903.0</ele><time>2026-05-03T16:43:54.992Z</time></trkpt><trkpt lat="39.06262" lon="16.2273183"><ele>903.0</ele><time>2026-05-03T16:43:56.991Z</time></trkpt><trkpt lat="39.0626" lon="16.22718"><ele>903.0</ele><time>2026-05-03T16:43:58.988Z</time></trkpt><trkpt lat="39.062615" lon="16.2270133"><ele>903.0</ele><time>2026-05-03T16:44:00.982Z</time></trkpt><trkpt lat="39.0626283" lon="16.2269317"><ele>901.0</ele><time>2026-05-03T16:44:01.981Z</time></trkpt><trkpt lat="39.0626433" lon="16.2267783"><ele>899.0</ele><time>2026-05-03T16:44:03.981Z</time></trkpt><trkpt lat="39.0626683" lon="16.2266533"><ele>897.0</ele><time>2026-05-03T16:44:05.989Z</time></trkpt><trkpt lat="39.062725" lon="16.2265483"><ele>895.0</ele><time>2026-05-03T16:44:07.981Z</time></trkpt><trkpt lat="39.0628033" lon="16.2264983"><ele>893.0</ele><time>2026-05-03T16:44:09.99Z</time></trkpt><trkpt lat="39.0628867" lon="16.2264583"><ele>893.5714285714286</ele><time>2026-05-03T16:44:11.99Z</time></trkpt><trkpt lat="39.0629617" lon="16.2264283"><ele>894.1428571428571</ele><time>2026-05-03T16:44:13.989Z</time></trkpt><trkpt lat="39.0630217" lon="16.2264"><ele>894.7142857142858</ele><time>2026-05-03T16:44:15.99Z</time></trkpt><trkpt lat="39.0630833" lon="16.226365"><ele>895.2857142857142</ele><time>2026-05-03T16:44:17.99Z</time></trkpt><trkpt lat="39.0631583" lon="16.226335"><ele>895.8571428571428</ele><time>2026-05-03T16:44:20.982Z</time></trkpt><trkpt lat="39.0632217" lon="16.22632"><ele>896.4285714285714</ele><time>2026-05-03T16:44:22.981Z</time></trkpt><trkpt lat="39.0633" lon="16.22628"><ele>897.0</ele><time>2026-05-03T16:44:24.991Z</time></trkpt><trkpt lat="39.0633817" lon="16.2262433"><ele>897.0</ele><time>2026-05-03T16:44:26.992Z</time></trkpt><trkpt lat="39.0634433" lon="16.2261583"><ele>897.0</ele><time>2026-05-03T16:44:28.989Z</time></trkpt><trkpt lat="39.06347" lon="16.22606"><ele>897.0</ele><time>2026-05-03T16:44:30.982Z</time></trkpt><trkpt lat="39.06348" lon="16.2259617"><ele>897.0</ele><time>2026-05-03T16:44:32.994Z</time></trkpt><trkpt lat="39.0634883" lon="16.2258567"><ele>897.0</ele><time>2026-05-03T16:44:34.98Z</time></trkpt><trkpt lat="39.063495" lon="16.2257367"><ele>897.0</ele><time>2026-05-03T16:44:36.991Z</time></trkpt><trkpt lat="39.0634933" lon="16.2256067"><ele>897.0</ele><time>2026-05-03T16:44:38.982Z</time></trkpt><trkpt lat="39.063515" lon="16.2254967"><ele>897.0</ele><time>2026-05-03T16:44:40.989Z</time></trkpt><trkpt lat="39.06355" lon="16.2254"><ele>897.0</ele><time>2026-05-03T16:44:42.988Z</time></trkpt><trkpt lat="39.0635817" lon="16.2252883"><ele>897.0</ele><time>2026-05-03T16:44:44.992Z</time></trkpt><trkpt lat="39.0636033" lon="16.2251733"><ele>897.0</ele><time>2026-05-03T16:44:46.988Z</time></trkpt><trkpt lat="39.063615" lon="16.2250717"><ele>897.0</ele><time>2026-05-03T16:44:48.992Z</time></trkpt><trkpt lat="39.06365" lon="16.2249733"><ele>897.0</ele><time>2026-05-03T16:44:51.99Z</time></trkpt><trkpt lat="39.0636867" lon="16.2248683"><ele>897.0</ele><time>2026-05-03T16:44:54.991Z</time></trkpt><trkpt lat="39.063725" lon="16.2247583"><ele>897.0</ele><time>2026-05-03T16:44:57.989Z</time></trkpt><trkpt lat="39.0637617" lon="16.2246883"><ele>897.0</ele><time>2026-05-03T16:44:59.991Z</time></trkpt><trkpt lat="39.0638083" lon="16.2246167"><ele>897.0</ele><time>2026-05-03T16:45:01.989Z</time></trkpt><trkpt lat="39.0638567" lon="16.2245517"><ele>897.0</ele><time>2026-05-03T16:45:03.99Z</time></trkpt><trkpt lat="39.0638967" lon="16.2244733"><ele>894.0</ele><time>2026-05-03T16:45:05.979Z</time></trkpt><trkpt lat="39.0639433" lon="16.2243983"><ele>891.0</ele><time>2026-05-03T16:45:07.982Z</time></trkpt><trkpt lat="39.0639833" lon="16.22431"><ele>888.0</ele><time>2026-05-03T16:45:09.99Z</time></trkpt><trkpt lat="39.0640133" lon="16.2242017"><ele>885.0</ele><time>2026-05-03T16:45:11.989Z</time></trkpt><trkpt lat="39.06404" lon="16.2240967"><ele>882.0</ele><time>2026-05-03T16:45:13.982Z</time></trkpt><trkpt lat="39.0640733" lon="16.2239983"><ele>879.0</ele><time>2026-05-03T16:45:15.989Z</time></trkpt><trkpt lat="39.06412" lon="16.223905"><ele>877.1666666666666</ele><time>2026-05-03T16:45:17.989Z</time></trkpt><trkpt lat="39.0641883" lon="16.2238383"><ele>875.3333333333333</ele><time>2026-05-03T16:45:19.991Z</time></trkpt><trkpt lat="39.0642517" lon="16.2237783"><ele>873.5</ele><time>2026-05-03T16:45:21.982Z</time></trkpt><trkpt lat="39.064315" lon="16.2237133"><ele>871.6666666666666</ele><time>2026-05-03T16:45:23.99Z</time></trkpt><trkpt lat="39.0643767" lon="16.2236633"><ele>869.8333333333333</ele><time>2026-05-03T16:45:25.989Z</time></trkpt><trkpt lat="39.0644383" lon="16.2236017"><ele>868.0</ele><time>2026-05-03T16:45:27.99Z</time></trkpt><trkpt lat="39.064475" lon="16.2235317"><ele>867.9999999999999</ele><time>2026-05-03T16:45:29.99Z</time></trkpt><trkpt lat="39.064515" lon="16.2234433"><ele>868.0</ele><time>2026-05-03T16:45:32.982Z</time></trkpt><trkpt lat="39.06457" lon="16.223385"><ele>868.0</ele><time>2026-05-03T16:45:34.988Z</time></trkpt><trkpt lat="39.06464" lon="16.2233317"><ele>868.0</ele><time>2026-05-03T16:45:36.992Z</time></trkpt><trkpt lat="39.0647133" lon="16.2232733"><ele>867.9999999999999</ele><time>2026-05-03T16:45:38.982Z</time></trkpt><trkpt lat="39.0647767" lon="16.2232067"><ele>868.0</ele><time>2026-05-03T16:45:40.982Z</time></trkpt><trkpt lat="39.0648533" lon="16.22312"><ele>862.8</ele><time>2026-05-03T16:45:42.992Z</time></trkpt><trkpt lat="39.0649333" lon="16.2230317"><ele>857.5999999999999</ele><time>2026-05-03T16:45:44.991Z</time></trkpt><trkpt lat="39.065015" lon="16.2229517"><ele>852.4000000000001</ele><time>2026-05-03T16:45:46.992Z</time></trkpt><trkpt lat="39.06509" lon="16.22287"><ele>847.2</ele><time>2026-05-03T16:45:48.991Z</time></trkpt><trkpt lat="39.06517" lon="16.2228067"><ele>842.0</ele><time>2026-05-03T16:45:50.993Z</time></trkpt><trkpt lat="39.0652167" lon="16.222735"><ele>842.0</ele><time>2026-05-03T16:45:52.989Z</time></trkpt><trkpt lat="39.0652" lon="16.2226367"><ele>842.0</ele><time>2026-05-03T16:45:54.989Z</time></trkpt><trkpt lat="39.0651233" lon="16.2225917"><ele>842.0</ele><time>2026-05-03T16:45:56.984Z</time></trkpt><trkpt lat="39.0650267" lon="16.2225717"><ele>842.0</ele><time>2026-05-03T16:45:58.989Z</time></trkpt><trkpt lat="39.0649283" lon="16.2225583"><ele>842.0</ele><time>2026-05-03T16:46:00.992Z</time></trkpt><trkpt lat="39.064835" lon="16.222535"><ele>842.0000000000001</ele><time>2026-05-03T16:46:02.991Z</time></trkpt><trkpt lat="39.064745" lon="16.2225"><ele>842.0</ele><time>2026-05-03T16:46:04.989Z</time></trkpt><trkpt lat="39.06468" lon="16.22243"><ele>842.0</ele><time>2026-05-03T16:46:06.982Z</time></trkpt><trkpt lat="39.0646133" lon="16.222335"><ele>842.0</ele><time>2026-05-03T16:46:14.992Z</time></trkpt><trkpt lat="39.06456" lon="16.2222633"><ele>842.0000000000001</ele><time>2026-05-03T16:46:16.979Z</time></trkpt><trkpt lat="39.0645" lon="16.2221733"><ele>842.0</ele><time>2026-05-03T16:46:18.981Z</time></trkpt><trkpt lat="39.06447" lon="16.2220667"><ele>836.4000000000001</ele><time>2026-05-03T16:46:20.992Z</time></trkpt><trkpt lat="39.0645" lon="16.2219617"><ele>830.8000000000001</ele><time>2026-05-03T16:46:22.99Z</time></trkpt><trkpt lat="39.064575" lon="16.2218583"><ele>825.2</ele><time>2026-05-03T16:46:24.991Z</time></trkpt><trkpt lat="39.0646333" lon="16.221725"><ele>819.6</ele><time>2026-05-03T16:46:26.991Z</time></trkpt><trkpt lat="39.06466" lon="16.22158"><ele>814.0</ele><time>2026-05-03T16:46:28.993Z</time></trkpt><trkpt lat="39.0646733" lon="16.2214283"><ele>809.0</ele><time>2026-05-03T16:46:30.992Z</time></trkpt><trkpt lat="39.0646783" lon="16.2212817"><ele>804.0</ele><time>2026-05-03T16:46:32.994Z</time></trkpt><trkpt lat="39.0646917" lon="16.2211483"><ele>799.0</ele><time>2026-05-03T16:46:34.989Z</time></trkpt><trkpt lat="39.0647083" lon="16.2210083"><ele>794.0</ele><time>2026-05-03T16:46:36.982Z</time></trkpt><trkpt lat="39.0647117" lon="16.2208617"><ele>789.0</ele><time>2026-05-03T16:46:38.992Z</time></trkpt><trkpt lat="39.0646917" lon="16.22073"><ele>785.0</ele><time>2026-05-03T16:46:40.989Z</time></trkpt><trkpt lat="39.0646717" lon="16.2205967"><ele>781.0</ele><time>2026-05-03T16:46:42.992Z</time></trkpt><trkpt lat="39.06467" lon="16.22045"><ele>777.0</ele><time>2026-05-03T16:46:44.98Z</time></trkpt><trkpt lat="39.0646983" lon="16.2203133"><ele>773.0</ele><time>2026-05-03T16:46:46.989Z</time></trkpt><trkpt lat="39.064775" lon="16.2201933"><ele>773.0000000000001</ele><time>2026-05-03T16:46:48.992Z</time></trkpt><trkpt lat="39.06482" lon="16.2201233"><ele>773.0</ele><time>2026-05-03T16:46:49.991Z</time></trkpt><trkpt lat="39.0648683" lon="16.2200483"><ele>773.0</ele><time>2026-05-03T16:46:50.992Z</time></trkpt><trkpt lat="39.064905" lon="16.2199633"><ele>773.0</ele><time>2026-05-03T16:46:51.991Z</time></trkpt><trkpt lat="39.0649433" lon="16.2198717"><ele>773.0000000000001</ele><time>2026-05-03T16:46:52.989Z</time></trkpt><trkpt lat="39.06498" lon="16.2197717"><ele>773.0</ele><time>2026-05-03T16:46:53.989Z</time></trkpt><trkpt lat="39.065015" lon="16.21968"><ele>774.5000000000001</ele><time>2026-05-03T16:46:54.99Z</time></trkpt><trkpt lat="39.065045" lon="16.2195917"><ele>776.0</ele><time>2026-05-03T16:46:55.99Z</time></trkpt><trkpt lat="39.0650667" lon="16.2195083"><ele>777.5</ele><time>2026-05-03T16:46:56.991Z</time></trkpt><trkpt lat="39.065095" lon="16.2193767"><ele>779.0</ele><time>2026-05-03T16:46:58.991Z</time></trkpt><trkpt lat="39.065055" lon="16.2193133"><ele>780.5000000000001</ele><time>2026-05-03T16:47:02.992Z</time></trkpt><trkpt lat="39.0649967" lon="16.2193817"><ele>782.0</ele><time>2026-05-03T16:47:04.981Z</time></trkpt><trkpt lat="39.0649117" lon="16.219455"><ele>777.9999999999999</ele><time>2026-05-03T16:47:06.993Z</time></trkpt><trkpt lat="39.0648567" lon="16.219495"><ele>774.0</ele><time>2026-05-03T16:47:07.98Z</time></trkpt><trkpt lat="39.0647867" lon="16.2195383"><ele>770.0</ele><time>2026-05-03T16:47:08.991Z</time></trkpt><trkpt lat="39.06472" lon="16.2195817"><ele>766.0</ele><time>2026-05-03T16:47:09.988Z</time></trkpt><trkpt lat="39.0646483" lon="16.2196233"><ele>762.0</ele><time>2026-05-03T16:47:10.99Z</time></trkpt><trkpt lat="39.0645783" lon="16.21967"><ele>757.9999999999999</ele><time>2026-05-03T16:47:11.989Z</time></trkpt><trkpt lat="39.0645217" lon="16.21972"><ele>754.0</ele><time>2026-05-03T16:47:12.992Z</time></trkpt><trkpt lat="39.0644683" lon="16.219785"><ele>757.8000000000001</ele><time>2026-05-03T16:47:13.99Z</time></trkpt><trkpt lat="39.064425" lon="16.2198683"><ele>761.6</ele><time>2026-05-03T16:47:14.991Z</time></trkpt><trkpt lat="39.064395" lon="16.2199717"><ele>765.4</ele><time>2026-05-03T16:47:15.98Z</time></trkpt><trkpt lat="39.06437" lon="16.2200967"><ele>769.2</ele><time>2026-05-03T16:47:16.989Z</time></trkpt><trkpt lat="39.0643383" lon="16.2202217"><ele>773.0</ele><time>2026-05-03T16:47:17.991Z</time></trkpt><trkpt lat="39.0642983" lon="16.2203383"><ele>773.0000000000001</ele><time>2026-05-03T16:47:18.992Z</time></trkpt><trkpt lat="39.06425" lon="16.2204383"><ele>773.0</ele><time>2026-05-03T16:47:19.98Z</time></trkpt><trkpt lat="39.06419" lon="16.2205217"><ele>773.0</ele><time>2026-05-03T16:47:20.992Z</time></trkpt><trkpt lat="39.06413" lon="16.2205983"><ele>773.0</ele><time>2026-05-03T16:47:21.98Z</time></trkpt><trkpt lat="39.064085" lon="16.2206733"><ele>773.0000000000001</ele><time>2026-05-03T16:47:22.981Z</time></trkpt><trkpt lat="39.0640333" lon="16.220765"><ele>773.0</ele><time>2026-05-03T16:47:23.981Z</time></trkpt><trkpt lat="39.0639917" lon="16.2208883"><ele>769.5999999999999</ele><time>2026-05-03T16:47:24.982Z</time></trkpt><trkpt lat="39.063935" lon="16.221005"><ele>766.1999999999999</ele><time>2026-05-03T16:47:25.98Z</time></trkpt><trkpt lat="39.0638617" lon="16.2211133"><ele>762.8</ele><time>2026-05-03T16:47:26.981Z</time></trkpt><trkpt lat="39.0637817" lon="16.221205"><ele>759.4</ele><time>2026-05-03T16:47:27.982Z</time></trkpt><trkpt lat="39.0637017" lon="16.2212833"><ele>756.0</ele><time>2026-05-03T16:47:28.979Z</time></trkpt><trkpt lat="39.0636183" lon="16.2213433"><ele>756.0</ele><time>2026-05-03T16:47:29.98Z</time></trkpt><trkpt lat="39.063535" lon="16.22138"><ele>756.0</ele><time>2026-05-03T16:47:30.99Z</time></trkpt><trkpt lat="39.0634483" lon="16.221405"><ele>756.0</ele><time>2026-05-03T16:47:31.979Z</time></trkpt><trkpt lat="39.0633567" lon="16.22142"><ele>756.0</ele><time>2026-05-03T16:47:32.988Z</time></trkpt><trkpt lat="39.0632733" lon="16.2214433"><ele>756.0</ele><time>2026-05-03T16:47:33.979Z</time></trkpt><trkpt lat="39.0632033" lon="16.2214717"><ele>756.0</ele><time>2026-05-03T16:47:34.988Z</time></trkpt><trkpt lat="39.0631333" lon="16.2215183"><ele>756.5</ele><time>2026-05-03T16:47:35.988Z</time></trkpt><trkpt lat="39.0630683" lon="16.2215667"><ele>757.0</ele><time>2026-05-03T16:47:36.98Z</time></trkpt><trkpt lat="39.06299" lon="16.2216233"><ele>757.5</ele><time>2026-05-03T16:47:37.982Z</time></trkpt><trkpt lat="39.0629233" lon="16.2216867"><ele>758.0</ele><time>2026-05-03T16:47:38.991Z</time></trkpt><trkpt lat="39.06286" lon="16.2217617"><ele>758.5</ele><time>2026-05-03T16:47:39.988Z</time></trkpt><trkpt lat="39.0627967" lon="16.221835"><ele>759.0</ele><time>2026-05-03T16:47:40.989Z</time></trkpt><trkpt lat="39.0627467" lon="16.2219283"><ele>759.0</ele><time>2026-05-03T16:47:41.98Z</time></trkpt><trkpt lat="39.0627067" lon="16.222035"><ele>759.0</ele><time>2026-05-03T16:47:42.99Z</time></trkpt><trkpt lat="39.0626567" lon="16.2221317"><ele>759.0</ele><time>2026-05-03T16:47:43.991Z</time></trkpt><trkpt lat="39.0626017" lon="16.2222133"><ele>759.0</ele><time>2026-05-03T16:47:44.99Z</time></trkpt><trkpt lat="39.06256" lon="16.2222833"><ele>759.0</ele><time>2026-05-03T16:47:45.981Z</time></trkpt><trkpt lat="39.0624717" lon="16.2223783"><ele>757.8000000000001</ele><time>2026-05-03T16:47:47.988Z</time></trkpt><trkpt lat="39.06244" lon="16.2225283"><ele>756.6</ele><time>2026-05-03T16:47:49.988Z</time></trkpt><trkpt lat="39.06242" lon="16.22268"><ele>755.4</ele><time>2026-05-03T16:47:51.991Z</time></trkpt><trkpt lat="39.0623783" lon="16.2228117"><ele>754.2</ele><time>2026-05-03T16:47:53.994Z</time></trkpt><trkpt lat="39.0623367" lon="16.2228867"><ele>753.0</ele><time>2026-05-03T16:47:54.991Z</time></trkpt><trkpt lat="39.0622783" lon="16.2229683"><ele>753.0</ele><time>2026-05-03T16:47:55.991Z</time></trkpt><trkpt lat="39.0621933" lon="16.2230667"><ele>753.0</ele><time>2026-05-03T16:47:56.993Z</time></trkpt><trkpt lat="39.0621067" lon="16.2231633"><ele>753.0</ele><time>2026-05-03T16:47:57.988Z</time></trkpt><trkpt lat="39.062005" lon="16.2232667"><ele>753.0</ele><time>2026-05-03T16:47:58.989Z</time></trkpt><trkpt lat="39.061905" lon="16.2233617"><ele>756.6666666666666</ele><time>2026-05-03T16:47:59.991Z</time></trkpt><trkpt lat="39.0618233" lon="16.2234383"><ele>760.3333333333333</ele><time>2026-05-03T16:48:00.989Z</time></trkpt><trkpt lat="39.06177" lon="16.22351"><ele>764.0</ele><time>2026-05-03T16:48:01.989Z</time></trkpt><trkpt lat="39.06173" lon="16.223595"><ele>767.6666666666666</ele><time>2026-05-03T16:48:02.98Z</time></trkpt><trkpt lat="39.0617" lon="16.2236833"><ele>771.3333333333333</ele><time>2026-05-03T16:48:03.988Z</time></trkpt><trkpt lat="39.0616883" lon="16.2237783"><ele>775.0</ele><time>2026-05-03T16:48:04.988Z</time></trkpt><trkpt lat="39.0617083" lon="16.2238633"><ele>774.9999999999999</ele><time>2026-05-03T16:48:05.988Z</time></trkpt><trkpt lat="39.0617367" lon="16.2239483"><ele>775.0</ele><time>2026-05-03T16:48:06.978Z</time></trkpt><trkpt lat="39.0617417" lon="16.2240483"><ele>775.0</ele><time>2026-05-03T16:48:07.98Z</time></trkpt><trkpt lat="39.061745" lon="16.2241583"><ele>775.0</ele><time>2026-05-03T16:48:08.98Z</time></trkpt><trkpt lat="39.061735" lon="16.22427"><ele>774.9999999999999</ele><time>2026-05-03T16:48:09.981Z</time></trkpt><trkpt lat="39.0617233" lon="16.2243933"><ele>775.0</ele><time>2026-05-03T16:48:10.989Z</time></trkpt><trkpt lat="39.0617117" lon="16.2245233"><ele>776.8</ele><time>2026-05-03T16:48:11.988Z</time></trkpt><trkpt lat="39.0617017" lon="16.2246367"><ele>778.6</ele><time>2026-05-03T16:48:12.988Z</time></trkpt><trkpt lat="39.061675" lon="16.2247417"><ele>780.4000000000001</ele><time>2026-05-03T16:48:13.989Z</time></trkpt><trkpt lat="39.0616483" lon="16.2248483"><ele>782.2</ele><time>2026-05-03T16:48:14.981Z</time></trkpt><trkpt lat="39.06161" lon="16.224975"><ele>784.0</ele><time>2026-05-03T16:48:15.987Z</time></trkpt><trkpt lat="39.061565" lon="16.2251217"><ele>784.0</ele><time>2026-05-03T16:48:16.988Z</time></trkpt><trkpt lat="39.0615333" lon="16.225275"><ele>784.0</ele><time>2026-05-03T16:48:17.988Z</time></trkpt><trkpt lat="39.0614983" lon="16.225425"><ele>784.0</ele><time>2026-05-03T16:48:18.988Z</time></trkpt><trkpt lat="39.0614617" lon="16.2255633"><ele>784.0</ele><time>2026-05-03T16:48:19.989Z</time></trkpt><trkpt lat="39.06144" lon="16.2256967"><ele>787.4999999999999</ele><time>2026-05-03T16:48:20.981Z</time></trkpt><trkpt lat="39.061425" lon="16.2258067"><ele>791.0</ele><time>2026-05-03T16:48:21.986Z</time></trkpt><trkpt lat="39.0614117" lon="16.22589"><ele>794.5</ele><time>2026-05-03T16:48:22.984Z</time></trkpt><trkpt lat="39.0613583" lon="16.2260133"><ele>798.0</ele><time>2026-05-03T16:48:24.98Z</time></trkpt><trkpt lat="39.0613083" lon="16.22608"><ele>801.4999999999999</ele><time>2026-05-03T16:48:25.988Z</time></trkpt><trkpt lat="39.0612583" lon="16.226165"><ele>805.0</ele><time>2026-05-03T16:48:26.981Z</time></trkpt><trkpt lat="39.0612117" lon="16.2262433"><ele>804.9999999999999</ele><time>2026-05-03T16:48:27.988Z</time></trkpt><trkpt lat="39.0611617" lon="16.2262933"><ele>805.0</ele><time>2026-05-03T16:48:28.988Z</time></trkpt><trkpt lat="39.0610483" lon="16.226375"><ele>805.0</ele><time>2026-05-03T16:48:30.989Z</time></trkpt><trkpt lat="39.0609917" lon="16.22643"><ele>805.0</ele><time>2026-05-03T16:48:31.988Z</time></trkpt><trkpt lat="39.0609283" lon="16.226495"><ele>804.9999999999999</ele><time>2026-05-03T16:48:32.991Z</time></trkpt><trkpt lat="39.0608733" lon="16.2265533"><ele>805.0</ele><time>2026-05-03T16:48:33.989Z</time></trkpt><trkpt lat="39.0608133" lon="16.2266183"><ele>806.8333333333333</ele><time>2026-05-03T16:48:34.989Z</time></trkpt><trkpt lat="39.060745" lon="16.2266883"><ele>808.6666666666666</ele><time>2026-05-03T16:48:35.988Z</time></trkpt><trkpt lat="39.0606783" lon="16.226765"><ele>810.5</ele><time>2026-05-03T16:48:36.989Z</time></trkpt><trkpt lat="39.060615" lon="16.2268367"><ele>812.3333333333333</ele><time>2026-05-03T16:48:37.989Z</time></trkpt><trkpt lat="39.0605583" lon="16.2269167"><ele>814.1666666666666</ele><time>2026-05-03T16:48:38.99Z</time></trkpt><trkpt lat="39.060515" lon="16.2270017"><ele>816.0</ele><time>2026-05-03T16:48:39.987Z</time></trkpt><trkpt lat="39.0604817" lon="16.2271033"><ele>816.0</ele><time>2026-05-03T16:48:40.99Z</time></trkpt><trkpt lat="39.06045" lon="16.227215"><ele>816.0</ele><time>2026-05-03T16:48:41.991Z</time></trkpt><trkpt lat="39.0604" lon="16.227355"><ele>816.0</ele><time>2026-05-03T16:48:42.978Z</time></trkpt><trkpt lat="39.06036" lon="16.227475"><ele>816.0</ele><time>2026-05-03T16:48:43.991Z</time></trkpt><trkpt lat="39.0603217" lon="16.2275717"><ele>816.0</ele><time>2026-05-03T16:48:44.992Z</time></trkpt><trkpt lat="39.0602867" lon="16.227665"><ele>814.8333333333334</ele><time>2026-05-03T16:48:45.991Z</time></trkpt><trkpt lat="39.0602567" lon="16.227745"><ele>813.6666666666667</ele><time>2026-05-03T16:48:46.987Z</time></trkpt><trkpt lat="39.0602217" lon="16.2278183"><ele>812.5</ele><time>2026-05-03T16:48:47.988Z</time></trkpt><trkpt lat="39.0601533" lon="16.227895"><ele>811.3333333333334</ele><time>2026-05-03T16:48:49.99Z</time></trkpt><trkpt lat="39.060055" lon="16.2279083"><ele>810.1666666666667</ele><time>2026-05-03T16:48:51.987Z</time></trkpt><trkpt lat="39.05999" lon="16.2278617"><ele>809.0</ele><time>2026-05-03T16:48:53.99Z</time></trkpt><trkpt lat="39.0599" lon="16.22778"><ele>809.0000000000001</ele><time>2026-05-03T16:48:55.98Z</time></trkpt><trkpt lat="39.0599133" lon="16.2279"><ele>809.0</ele><time>2026-05-03T16:49:06.981Z</time></trkpt><trkpt lat="39.0599217" lon="16.2280517"><ele>809.0</ele><time>2026-05-03T16:49:08.979Z</time></trkpt><trkpt lat="39.0599317" lon="16.22814"><ele>809.0</ele><time>2026-05-03T16:49:09.98Z</time></trkpt><trkpt lat="39.059935" lon="16.2282317"><ele>809.0000000000001</ele><time>2026-05-03T16:49:10.99Z</time></trkpt><trkpt lat="39.0599367" lon="16.2283167"><ele>809.0</ele><time>2026-05-03T16:49:11.991Z</time></trkpt><trkpt lat="39.0599383" lon="16.2284033"><ele>814.0000000000001</ele><time>2026-05-03T16:49:12.989Z</time></trkpt><trkpt lat="39.0599383" lon="16.2285483"><ele>819.0</ele><time>2026-05-03T16:49:14.992Z</time></trkpt><trkpt lat="39.059925" lon="16.2286583"><ele>824.0</ele><time>2026-05-03T16:49:16.99Z</time></trkpt><trkpt lat="39.0598917" lon="16.22874"><ele>829.0</ele><time>2026-05-03T16:49:19.99Z</time></trkpt><trkpt lat="39.0598233" lon="16.2287317"><ele>834.0000000000001</ele><time>2026-05-03T16:49:25.979Z</time></trkpt><trkpt lat="39.059745" lon="16.2287533"><ele>839.0</ele><time>2026-05-03T16:49:28.99Z</time></trkpt><trkpt lat="39.0596983" lon="16.2288267"><ele>839.0</ele><time>2026-05-03T16:49:30.981Z</time></trkpt><trkpt lat="39.05962" lon="16.22892"><ele>839.0</ele><time>2026-05-03T16:49:32.991Z</time></trkpt><trkpt lat="39.0595533" lon="16.229015"><ele>839.0</ele><time>2026-05-03T16:49:34.99Z</time></trkpt><trkpt lat="39.0594683" lon="16.2290883"><ele>839.0</ele><time>2026-05-03T16:49:36.992Z</time></trkpt><trkpt lat="39.0594067" lon="16.2291367"><ele>839.0</ele><time>2026-05-03T16:49:38.991Z</time></trkpt><trkpt lat="39.05934" lon="16.2291617"><ele>841.1666666666667</ele><time>2026-05-03T16:49:41.99Z</time></trkpt><trkpt lat="39.0592683" lon="16.2292233"><ele>843.3333333333334</ele><time>2026-05-03T16:49:44.993Z</time></trkpt><trkpt lat="39.0591867" lon="16.22925"><ele>845.5</ele><time>2026-05-03T16:49:46.99Z</time></trkpt><trkpt lat="39.0591033" lon="16.2292467"><ele>847.6666666666667</ele><time>2026-05-03T16:49:48.989Z</time></trkpt><trkpt lat="39.0590317" lon="16.2292483"><ele>849.8333333333334</ele><time>2026-05-03T16:49:50.991Z</time></trkpt><trkpt lat="39.058955" lon="16.2292567"><ele>852.0</ele><time>2026-05-03T16:49:52.988Z</time></trkpt><trkpt lat="39.0588683" lon="16.22929"><ele>852.0</ele><time>2026-05-03T16:49:55.99Z</time></trkpt><trkpt lat="39.0588117" lon="16.22933"><ele>852.0</ele><time>2026-05-03T16:49:57.991Z</time></trkpt><trkpt lat="39.05875" lon="16.229395"><ele>852.0</ele><time>2026-05-03T16:50:00.99Z</time></trkpt><trkpt lat="39.058845" lon="16.229395"><ele>852.0</ele><time>2026-05-03T16:50:03.98Z</time></trkpt><trkpt lat="39.0589317" lon="16.2294217"><ele>852.0</ele><time>2026-05-03T16:50:05.991Z</time></trkpt><trkpt lat="39.0590017" lon="16.2294767"><ele>852.0</ele><time>2026-05-03T16:50:07.991Z</time></trkpt><trkpt lat="39.0590433" lon="16.2295633"><ele>852.0</ele><time>2026-05-03T16:50:09.988Z</time></trkpt><trkpt lat="39.059075" lon="16.2296683"><ele>852.0</ele><time>2026-05-03T16:50:11.991Z</time></trkpt><trkpt lat="39.0591017" lon="16.2297667"><ele>852.0</ele><time>2026-05-03T16:50:13.99Z</time></trkpt><trkpt lat="39.0591267" lon="16.22986"><ele>852.0</ele><time>2026-05-03T16:50:15.981Z</time></trkpt><trkpt lat="39.059145" lon="16.229955"><ele>852.0</ele><time>2026-05-03T16:50:17.98Z</time></trkpt><trkpt lat="39.05916" lon="16.23005"><ele>852.0</ele><time>2026-05-03T16:50:19.992Z</time></trkpt><trkpt lat="39.05917" lon="16.2301433"><ele>856.8333333333334</ele><time>2026-05-03T16:50:21.99Z</time></trkpt><trkpt lat="39.0591617" lon="16.2302283"><ele>861.6666666666667</ele><time>2026-05-03T16:50:23.991Z</time></trkpt><trkpt lat="39.0591233" lon="16.2303183"><ele>866.5</ele><time>2026-05-03T16:50:25.991Z</time></trkpt><trkpt lat="39.0590583" lon="16.2304"><ele>871.3333333333334</ele><time>2026-05-03T16:50:27.991Z</time></trkpt><trkpt lat="39.058995" lon="16.23046"><ele>876.1666666666667</ele><time>2026-05-03T16:50:29.991Z</time></trkpt><trkpt lat="39.0589317" lon="16.2305017"><ele>881.0</ele><time>2026-05-03T16:50:31.989Z</time></trkpt><trkpt lat="39.0588583" lon="16.2305383"><ele>881.0000000000001</ele><time>2026-05-03T16:50:33.98Z</time></trkpt><trkpt lat="39.0587833" lon="16.230565"><ele>881.0</ele><time>2026-05-03T16:50:35.992Z</time></trkpt><trkpt lat="39.0587167" lon="16.23059"><ele>881.0</ele><time>2026-05-03T16:50:37.99Z</time></trkpt><trkpt lat="39.058645" lon="16.2306083"><ele>881.0</ele><time>2026-05-03T16:50:39.987Z</time></trkpt><trkpt lat="39.05857" lon="16.230635"><ele>881.0000000000001</ele><time>2026-05-03T16:50:41.99Z</time></trkpt><trkpt lat="39.0585067" lon="16.230665"><ele>881.0</ele><time>2026-05-03T16:50:43.991Z</time></trkpt><trkpt lat="39.05843" lon="16.2307183"><ele>881.1428571428571</ele><time>2026-05-03T16:50:46.989Z</time></trkpt><trkpt lat="39.05837" lon="16.2307633"><ele>881.2857142857143</ele><time>2026-05-03T16:50:49.99Z</time></trkpt><trkpt lat="39.0583433" lon="16.23084"><ele>881.4285714285714</ele><time>2026-05-03T16:50:53.991Z</time></trkpt><trkpt lat="39.0582833" lon="16.2308017"><ele>881.5714285714286</ele><time>2026-05-03T16:51:03.98Z</time></trkpt><trkpt lat="39.05826" lon="16.2307217"><ele>881.7142857142858</ele><time>2026-05-03T16:51:05.981Z</time></trkpt><trkpt lat="39.058225" lon="16.2306417"><ele>881.8571428571429</ele><time>2026-05-03T16:51:07.992Z</time></trkpt><trkpt lat="39.0581733" lon="16.23057"><ele>882.0</ele><time>2026-05-03T16:51:09.987Z</time></trkpt><trkpt lat="39.0580917" lon="16.2305117"><ele>879.8333333333334</ele><time>2026-05-03T16:51:11.98Z</time></trkpt><trkpt lat="39.0579983" lon="16.2304817"><ele>877.6666666666667</ele><time>2026-05-03T16:51:13.989Z</time></trkpt><trkpt lat="39.05791" lon="16.2304517"><ele>875.5</ele><time>2026-05-03T16:51:15.987Z</time></trkpt><trkpt lat="39.0578117" lon="16.2304117"><ele>873.3333333333334</ele><time>2026-05-03T16:51:17.99Z</time></trkpt><trkpt lat="39.05775" lon="16.2303833"><ele>871.1666666666667</ele><time>2026-05-03T16:51:19.991Z</time></trkpt><trkpt lat="39.057685" lon="16.230355"><ele>869.0</ele><time>2026-05-03T16:51:28.989Z</time></trkpt><trkpt lat="39.0576117" lon="16.2303283"><ele>869.0000000000001</ele><time>2026-05-03T16:51:30.992Z</time></trkpt><trkpt lat="39.0575383" lon="16.2303017"><ele>869.0</ele><time>2026-05-03T16:51:32.992Z</time></trkpt><trkpt lat="39.05746" lon="16.230255"><ele>869.0</ele><time>2026-05-03T16:51:38.981Z</time></trkpt><trkpt lat="39.0573917" lon="16.2302633"><ele>869.0</ele><time>2026-05-03T16:51:41.991Z</time></trkpt><trkpt lat="39.057475" lon="16.230275"><ele>869.0000000000001</ele><time>2026-05-03T16:51:58.991Z</time></trkpt><trkpt lat="39.05754" lon="16.23031"><ele>869.0</ele><time>2026-05-03T16:52:00.991Z</time></trkpt><trkpt lat="39.05762" lon="16.2303517"><ele>869.0</ele><time>2026-05-03T16:52:02.992Z</time></trkpt><trkpt lat="39.0576783" lon="16.230395"><ele>869.0</ele><time>2026-05-03T16:52:04.991Z</time></trkpt><trkpt lat="39.0577583" lon="16.230385"><ele>869.0</ele><time>2026-05-03T16:52:09.989Z</time></trkpt><trkpt lat="39.0578233" lon="16.2303517"><ele>869.0</ele><time>2026-05-03T16:52:11.991Z</time></trkpt><trkpt lat="39.0578983" lon="16.2303217"><ele>869.0</ele><time>2026-05-03T16:52:13.991Z</time></trkpt><trkpt lat="39.0579633" lon="16.2302983"><ele>869.0</ele><time>2026-05-03T16:52:15.982Z</time></trkpt><trkpt lat="39.058025" lon="16.2302717"><ele>869.0</ele><time>2026-05-03T16:52:18.992Z</time></trkpt><trkpt lat="39.0580783" lon="16.23021"><ele>869.0</ele><time>2026-05-03T16:52:24.992Z</time></trkpt><trkpt lat="39.0580317" lon="16.2302733"><ele>869.0</ele><time>2026-05-03T16:56:11.98Z</time></trkpt><trkpt lat="39.0579583" lon="16.230315"><ele>869.0</ele><time>2026-05-03T16:56:14.992Z</time></trkpt><trkpt lat="39.0578967" lon="16.2303433"><ele>869.0</ele><time>2026-05-03T16:56:16.993Z</time></trkpt><trkpt lat="39.0578317" lon="16.2303733"><ele>869.0</ele><time>2026-05-03T16:56:18.989Z</time></trkpt><trkpt lat="39.0577667" lon="16.2304017"><ele>869.0</ele><time>2026-05-03T16:56:20.992Z</time></trkpt><trkpt lat="39.0577017" lon="16.230425"><ele>869.0</ele><time>2026-05-03T16:56:22.989Z</time></trkpt><trkpt lat="39.057615" lon="16.230415"><ele>869.0000000000001</ele><time>2026-05-03T16:56:25.99Z</time></trkpt><trkpt lat="39.05755" lon="16.2303667"><ele>869.0</ele><time>2026-05-03T16:56:31.991Z</time></trkpt><trkpt lat="39.0574917" lon="16.2303233"><ele>869.0</ele><time>2026-05-03T16:56:44.991Z</time></trkpt><trkpt lat="39.0575417" lon="16.2302533"><ele>869.0</ele><time>2026-05-03T16:56:49.989Z</time></trkpt><trkpt lat="39.0576083" lon="16.2302217"><ele>869.0000000000001</ele><time>2026-05-03T16:56:51.98Z</time></trkpt><trkpt lat="39.0576917" lon="16.230185"><ele>869.0</ele><time>2026-05-03T16:56:53.99Z</time></trkpt><trkpt lat="39.0577917" lon="16.2301383"><ele>869.0</ele><time>2026-05-03T16:56:55.991Z</time></trkpt><trkpt lat="39.0578983" lon="16.2300817"><ele>869.0000000000001</ele><time>2026-05-03T16:56:57.989Z</time></trkpt><trkpt lat="39.0579933" lon="16.23001"><ele>869.0000000000001</ele><time>2026-05-03T16:56:59.989Z</time></trkpt><trkpt lat="39.0580967" lon="16.2299283"><ele>869.0</ele><time>2026-05-03T16:57:01.989Z</time></trkpt><trkpt lat="39.05815" lon="16.2298767"><ele>869.0</ele><time>2026-05-03T16:57:02.993Z</time></trkpt><trkpt lat="39.05821" lon="16.2298267"><ele>864.75</ele><time>2026-05-03T16:57:03.988Z</time></trkpt><trkpt lat="39.0583217" lon="16.2297633"><ele>860.5</ele><time>2026-05-03T16:57:05.98Z</time></trkpt><trkpt lat="39.0584283" lon="16.2296967"><ele>856.25</ele><time>2026-05-03T16:57:07.991Z</time></trkpt><trkpt lat="39.0585333" lon="16.22964"><ele>852.0</ele><time>2026-05-03T16:57:09.988Z</time></trkpt><trkpt lat="39.0586217" lon="16.2295683"><ele>852.0</ele><time>2026-05-03T16:57:11.989Z</time></trkpt><trkpt lat="39.0587017" lon="16.229485"><ele>852.0</ele><time>2026-05-03T16:57:13.991Z</time></trkpt><trkpt lat="39.0587633" lon="16.2294017"><ele>852.0</ele><time>2026-05-03T16:57:15.993Z</time></trkpt><trkpt lat="39.0588217" lon="16.2293083"><ele>852.0</ele><time>2026-05-03T16:58:16.989Z</time></trkpt><trkpt lat="39.0588833" lon="16.22928"><ele>852.0</ele><time>2026-05-03T16:58:41.99Z</time></trkpt><trkpt lat="39.0589533" lon="16.2292517"><ele>852.0</ele><time>2026-05-03T16:58:43.99Z</time></trkpt><trkpt lat="39.0590383" lon="16.2292333"><ele>856.2</ele><time>2026-05-03T16:58:45.988Z</time></trkpt><trkpt lat="39.0591333" lon="16.229215"><ele>860.4000000000001</ele><time>2026-05-03T16:58:47.991Z</time></trkpt><trkpt lat="39.0592417" lon="16.2291967"><ele>864.5999999999999</ele><time>2026-05-03T16:58:49.992Z</time></trkpt><trkpt lat="39.0593533" lon="16.2291617"><ele>868.8</ele><time>2026-05-03T16:58:51.987Z</time></trkpt><trkpt lat="39.0594667" lon="16.2290967"><ele>873.0</ele><time>2026-05-03T16:58:53.991Z</time></trkpt><trkpt lat="39.0595717" lon="16.229015"><ele>870.6666666666666</ele><time>2026-05-03T16:58:55.991Z</time></trkpt><trkpt lat="39.059685" lon="16.22893"><ele>868.3333333333333</ele><time>2026-05-03T16:58:57.99Z</time></trkpt><trkpt lat="39.0597417" lon="16.2288867"><ele>866.0</ele><time>2026-05-03T16:58:58.989Z</time></trkpt><trkpt lat="39.0597967" lon="16.2288317"><ele>863.6666666666666</ele><time>2026-05-03T16:58:59.99Z</time></trkpt><trkpt lat="39.0598467" lon="16.228775"><ele>861.3333333333333</ele><time>2026-05-03T16:59:00.991Z</time></trkpt><trkpt lat="39.0598967" lon="16.2287233"><ele>859.0</ele><time>2026-05-03T16:59:01.99Z</time></trkpt><trkpt lat="39.059985" lon="16.2286283"><ele>858.9999999999999</ele><time>2026-05-03T16:59:03.99Z</time></trkpt><trkpt lat="39.060045" lon="16.228575"><ele>859.0</ele><time>2026-05-03T16:59:05.981Z</time></trkpt><trkpt lat="39.0601133" lon="16.2286333"><ele>859.0</ele><time>2026-05-03T16:59:09.977Z</time></trkpt><trkpt lat="39.0601317" lon="16.22874"><ele>859.0</ele><time>2026-05-03T16:59:12.99Z</time></trkpt><trkpt lat="39.0601367" lon="16.2288217"><ele>859.0</ele><time>2026-05-03T16:59:14.992Z</time></trkpt><trkpt lat="39.06014" lon="16.2289067"><ele>858.9999999999999</ele><time>2026-05-03T16:59:16.989Z</time></trkpt><trkpt lat="39.06014" lon="16.2289983"><ele>859.0</ele><time>2026-05-03T16:59:19.99Z</time></trkpt><trkpt lat="39.060155" lon="16.2290783"><ele>860.6666666666666</ele><time>2026-05-03T16:59:22.99Z</time></trkpt><trkpt lat="39.0602417" lon="16.2290933"><ele>862.3333333333333</ele><time>2026-05-03T16:59:25.989Z</time></trkpt><trkpt lat="39.0603083" lon="16.2290883"><ele>864.0</ele><time>2026-05-03T16:59:27.991Z</time></trkpt><trkpt lat="39.060385" lon="16.2291117"><ele>865.6666666666667</ele><time>2026-05-03T16:59:29.991Z</time></trkpt><trkpt lat="39.0604733" lon="16.2291467"><ele>867.3333333333334</ele><time>2026-05-03T16:59:31.99Z</time></trkpt><trkpt lat="39.0605683" lon="16.2291767"><ele>869.0</ele><time>2026-05-03T16:59:33.988Z</time></trkpt><trkpt lat="39.060645" lon="16.2291817"><ele>869.0</ele><time>2026-05-03T16:59:35.991Z</time></trkpt><trkpt lat="39.0607283" lon="16.229165"><ele>869.0</ele><time>2026-05-03T16:59:38.992Z</time></trkpt><trkpt lat="39.0607933" lon="16.2291483"><ele>869.0</ele><time>2026-05-03T16:59:41.99Z</time></trkpt><trkpt lat="39.0608583" lon="16.2291283"><ele>869.0</ele><time>2026-05-03T16:59:45.988Z</time></trkpt><trkpt lat="39.0609317" lon="16.2291067"><ele>869.0</ele><time>2026-05-03T16:59:49.99Z</time></trkpt><trkpt lat="39.0609967" lon="16.2290833"><ele>869.0</ele><time>2026-05-03T16:59:52.989Z</time></trkpt><trkpt lat="39.0610767" lon="16.2290867"><ele>869.0</ele><time>2026-05-03T16:59:55.991Z</time></trkpt><trkpt lat="39.0611633" lon="16.2290617"><ele>870.1666666666667</ele><time>2026-05-03T16:59:58.99Z</time></trkpt><trkpt lat="39.0612267" lon="16.2290183"><ele>871.3333333333334</ele><time>2026-05-03T17:00:01.979Z</time></trkpt><trkpt lat="39.0613283" lon="16.2290167"><ele>872.5</ele><time>2026-05-03T17:00:03.987Z</time></trkpt><trkpt lat="39.0614083" lon="16.22901"><ele>873.6666666666667</ele><time>2026-05-03T17:00:05.981Z</time></trkpt><trkpt lat="39.061485" lon="16.2290167"><ele>874.8333333333334</ele><time>2026-05-03T17:00:07.99Z</time></trkpt><trkpt lat="39.0615533" lon="16.2289983"><ele>876.0</ele><time>2026-05-03T17:00:09.988Z</time></trkpt><trkpt lat="39.0616233" lon="16.22898"><ele>878.7142857142858</ele><time>2026-05-03T17:00:11.989Z</time></trkpt><trkpt lat="39.0616867" lon="16.2289717"><ele>881.4285714285713</ele><time>2026-05-03T17:00:13.99Z</time></trkpt><trkpt lat="39.0617717" lon="16.2289383"><ele>884.1428571428571</ele><time>2026-05-03T17:00:16.989Z</time></trkpt><trkpt lat="39.06185" lon="16.22891"><ele>886.8571428571429</ele><time>2026-05-03T17:00:19.99Z</time></trkpt><trkpt lat="39.061915" lon="16.2288867"><ele>889.5714285714287</ele><time>2026-05-03T17:00:21.988Z</time></trkpt><trkpt lat="39.0619917" lon="16.228865"><ele>892.2857142857142</ele><time>2026-05-03T17:00:24.99Z</time></trkpt><trkpt lat="39.06206" lon="16.2288533"><ele>895.0</ele><time>2026-05-03T17:00:27.988Z</time></trkpt><trkpt lat="39.0621167" lon="16.2287917"><ele>895.0</ele><time>2026-05-03T17:00:30.991Z</time></trkpt><trkpt lat="39.0620767" lon="16.2287283"><ele>895.0</ele><time>2026-05-03T17:00:33.99Z</time></trkpt><trkpt lat="39.0620267" lon="16.2286483"><ele>895.0</ele><time>2026-05-03T17:00:36.989Z</time></trkpt><trkpt lat="39.0619917" lon="16.2285733"><ele>895.0</ele><time>2026-05-03T17:00:39.987Z</time></trkpt><trkpt lat="39.06199" lon="16.2284817"><ele>895.0</ele><time>2026-05-03T17:00:42.989Z</time></trkpt><trkpt lat="39.0620117" lon="16.2283883"><ele>895.0</ele><time>2026-05-03T17:00:45.988Z</time></trkpt><trkpt lat="39.0620467" lon="16.228305"><ele>895.0</ele><time>2026-05-03T17:00:48.991Z</time></trkpt><trkpt lat="39.0620917" lon="16.2282233"><ele>895.0</ele><time>2026-05-03T17:00:52.981Z</time></trkpt><trkpt lat="39.06215" lon="16.2281517"><ele>895.0</ele><time>2026-05-03T17:00:56.992Z</time></trkpt><trkpt lat="39.062205" lon="16.2280983"><ele>895.0</ele><time>2026-05-03T17:01:00.989Z</time></trkpt><trkpt lat="39.0622767" lon="16.2280617"><ele>895.0</ele><time>2026-05-03T17:01:04.989Z</time></trkpt><trkpt lat="39.0624917" lon="16.2279233"><ele>896.3333333333333</ele><time>2026-05-03T17:01:28.982Z</time></trkpt><trkpt lat="39.0625417" lon="16.2278567"><ele>897.6666666666666</ele><time>2026-05-03T17:01:31.989Z</time></trkpt><trkpt lat="39.062585" lon="16.22779"><ele>899.0</ele><time>2026-05-03T17:01:33.99Z</time></trkpt><trkpt lat="39.0626167" lon="16.22769"><ele>900.3333333333333</ele><time>2026-05-03T17:01:36.989Z</time></trkpt><trkpt lat="39.0626483" lon="16.2275983"><ele>901.6666666666666</ele><time>2026-05-03T17:01:39.99Z</time></trkpt><trkpt lat="39.0626717" lon="16.2275133"><ele>903.0</ele><time>2026-05-03T17:01:42.989Z</time></trkpt><trkpt lat="39.0626833" lon="16.2274067"><ele>901.3333333333334</ele><time>2026-05-03T17:01:46.99Z</time></trkpt><trkpt lat="39.062665" lon="16.2273067"><ele>899.6666666666667</ele><time>2026-05-03T17:01:50.998Z</time></trkpt><trkpt lat="39.0626367" lon="16.2272233"><ele>898.0</ele><time>2026-05-03T17:01:53.99Z</time></trkpt><trkpt lat="39.0626283" lon="16.22713"><ele>896.3333333333334</ele><time>2026-05-03T17:01:56.991Z</time></trkpt><trkpt lat="39.0626367" lon="16.2270217"><ele>894.6666666666667</ele><time>2026-05-03T17:01:59.99Z</time></trkpt><trkpt lat="39.0626483" lon="16.2269183"><ele>893.0</ele><time>2026-05-03T17:02:02.993Z</time></trkpt><trkpt lat="39.0626717" lon="16.2268217"><ele>893.0000000000001</ele><time>2026-05-03T17:02:05.992Z</time></trkpt><trkpt lat="39.0626833" lon="16.2267067"><ele>893.0</ele><time>2026-05-03T17:02:08.992Z</time></trkpt><trkpt lat="39.0627117" lon="16.22659"><ele>893.0</ele><time>2026-05-03T17:02:11.981Z</time></trkpt><trkpt lat="39.06278" lon="16.2265183"><ele>893.0</ele><time>2026-05-03T17:02:14.992Z</time></trkpt><trkpt lat="39.0628683" lon="16.2264633"><ele>893.0000000000001</ele><time>2026-05-03T17:02:17.989Z</time></trkpt><trkpt lat="39.0629383" lon="16.22643"><ele>893.0</ele><time>2026-05-03T17:02:19.989Z</time></trkpt><trkpt lat="39.0630067" lon="16.2264233"><ele>893.6666666666667</ele><time>2026-05-03T17:02:21.992Z</time></trkpt><trkpt lat="39.0630783" lon="16.226375"><ele>894.3333333333334</ele><time>2026-05-03T17:02:24.988Z</time></trkpt><trkpt lat="39.0631517" lon="16.2263483"><ele>895.0</ele><time>2026-05-03T17:02:27.989Z</time></trkpt><trkpt lat="39.0632267" lon="16.2263283"><ele>895.6666666666667</ele><time>2026-05-03T17:02:30.989Z</time></trkpt><trkpt lat="39.0633" lon="16.2263083"><ele>896.3333333333334</ele><time>2026-05-03T17:02:33.988Z</time></trkpt><trkpt lat="39.0633817" lon="16.2262667"><ele>897.0</ele><time>2026-05-03T17:02:36.99Z</time></trkpt><trkpt lat="39.0634267" lon="16.2262083"><ele>897.0</ele><time>2026-05-03T17:02:38.991Z</time></trkpt><trkpt lat="39.0634717" lon="16.2261267"><ele>897.0</ele><time>2026-05-03T17:02:40.977Z</time></trkpt><trkpt lat="39.0634967" lon="16.22605"><ele>897.0</ele><time>2026-05-03T17:02:42.98Z</time></trkpt><trkpt lat="39.0635167" lon="16.2259317"><ele>897.0</ele><time>2026-05-03T17:02:45.992Z</time></trkpt><trkpt lat="39.0635233" lon="16.2258483"><ele>897.0</ele><time>2026-05-03T17:02:46.988Z</time></trkpt><trkpt lat="39.0635217" lon="16.225765"><ele>897.0</ele><time>2026-05-03T17:02:47.989Z</time></trkpt><trkpt lat="39.06352" lon="16.22566"><ele>897.0</ele><time>2026-05-03T17:02:49.989Z</time></trkpt><trkpt lat="39.063535" lon="16.2255783"><ele>897.0</ele><time>2026-05-03T17:02:51.987Z</time></trkpt><trkpt lat="39.063565" lon="16.2255017"><ele>897.0</ele><time>2026-05-03T17:02:53.99Z</time></trkpt><trkpt lat="39.0635983" lon="16.22539"><ele>897.0</ele><time>2026-05-03T17:02:56.991Z</time></trkpt><trkpt lat="39.063615" lon="16.2253"><ele>897.0</ele><time>2026-05-03T17:02:58.99Z</time></trkpt><trkpt lat="39.06364" lon="16.2252183"><ele>897.0</ele><time>2026-05-03T17:03:00.988Z</time></trkpt><trkpt lat="39.0636517" lon="16.225115"><ele>897.0</ele><time>2026-05-03T17:03:02.991Z</time></trkpt><trkpt lat="39.06366" lon="16.2250233"><ele>897.0</ele><time>2026-05-03T17:03:04.988Z</time></trkpt><trkpt lat="39.06368" lon="16.224945"><ele>897.0</ele><time>2026-05-03T17:03:06.981Z</time></trkpt><trkpt lat="39.063715" lon="16.224835"><ele>897.0</ele><time>2026-05-03T17:03:09.988Z</time></trkpt><trkpt lat="39.0637383" lon="16.2247533"><ele>897.0</ele><time>2026-05-03T17:03:11.99Z</time></trkpt><trkpt lat="39.06378" lon="16.2246833"><ele>897.0</ele><time>2026-05-03T17:03:13.99Z</time></trkpt><trkpt lat="39.06383" lon="16.2246117"><ele>897.0</ele><time>2026-05-03T17:03:15.989Z</time></trkpt><trkpt lat="39.0638717" lon="16.2245433"><ele>897.0</ele><time>2026-05-03T17:03:17.988Z</time></trkpt><trkpt lat="39.063915" lon="16.2244783"><ele>894.0</ele><time>2026-05-03T17:03:19.99Z</time></trkpt><trkpt lat="39.0639617" lon="16.224405"><ele>891.0</ele><time>2026-05-03T17:03:21.988Z</time></trkpt><trkpt lat="39.0640017" lon="16.224315"><ele>888.0</ele><time>2026-05-03T17:03:23.981Z</time></trkpt><trkpt lat="39.0640317" lon="16.22421"><ele>885.0</ele><time>2026-05-03T17:03:25.992Z</time></trkpt><trkpt lat="39.0640533" lon="16.2241067"><ele>882.0</ele><time>2026-05-03T17:03:27.99Z</time></trkpt><trkpt lat="39.0640717" lon="16.22401"><ele>879.0</ele><time>2026-05-03T17:03:29.989Z</time></trkpt><trkpt lat="39.0641067" lon="16.2239217"><ele>877.1666666666666</ele><time>2026-05-03T17:03:31.989Z</time></trkpt><trkpt lat="39.064162" lon="16.223848"><ele>875.3333333333333</ele><time>2026-05-03T17:03:33.987Z</time></trkpt><trkpt lat="39.0642375" lon="16.2237928"><ele>873.5</ele><time>2026-05-03T17:03:35.992Z</time></trkpt><trkpt lat="39.0643036" lon="16.2237333"><ele>871.6666666666666</ele><time>2026-05-03T17:03:37.991Z</time></trkpt><trkpt lat="39.064369" lon="16.2236799"><ele>869.8333333333333</ele><time>2026-05-03T17:03:39.988Z</time></trkpt><trkpt lat="39.0644272" lon="16.2236156"><ele>868.0</ele><time>2026-05-03T17:03:41.992Z</time></trkpt><trkpt lat="39.064468" lon="16.223538"><ele>867.9999999999999</ele><time>2026-05-03T17:03:43.983Z</time></trkpt><trkpt lat="39.0645067" lon="16.2234323"><ele>868.0</ele><time>2026-05-03T17:03:46.99Z</time></trkpt><trkpt lat="39.0645773" lon="16.2233747"><ele>868.0</ele><time>2026-05-03T17:03:48.993Z</time></trkpt><trkpt lat="39.0646555" lon="16.2233138"><ele>868.0</ele><time>2026-05-03T17:03:50.992Z</time></trkpt><trkpt lat="39.0647231" lon="16.2232483"><ele>867.9999999999999</ele><time>2026-05-03T17:03:52.991Z</time></trkpt><trkpt lat="39.0647859" lon="16.22318"><ele>868.0</ele><time>2026-05-03T17:03:54.992Z</time></trkpt><trkpt lat="39.0648616" lon="16.2231057"><ele>863.6666666666666</ele><time>2026-05-03T17:03:56.992Z</time></trkpt><trkpt lat="39.0649403" lon="16.2230348"><ele>859.3333333333333</ele><time>2026-05-03T17:03:58.99Z</time></trkpt><trkpt lat="39.0650164" lon="16.2229727"><ele>855.0</ele><time>2026-05-03T17:04:00.993Z</time></trkpt><trkpt lat="39.0650744" lon="16.2229066"><ele>850.6666666666667</ele><time>2026-05-03T17:04:02.992Z</time></trkpt><trkpt lat="39.0651391" lon="16.222852"><ele>846.3333333333334</ele><time>2026-05-03T17:04:04.991Z</time></trkpt><trkpt lat="39.065205" lon="16.2227833"><ele>842.0</ele><time>2026-05-03T17:04:06.992Z</time></trkpt><trkpt lat="39.0652117" lon="16.2226833"><ele>842.0</ele><time>2026-05-03T17:04:08.995Z</time></trkpt><trkpt lat="39.065155" lon="16.2225933"><ele>842.0</ele><time>2026-05-03T17:04:10.992Z</time></trkpt><trkpt lat="39.065055" lon="16.22257"><ele>842.0</ele><time>2026-05-03T17:04:12.992Z</time></trkpt><trkpt lat="39.0649467" lon="16.2225617"><ele>842.0</ele><time>2026-05-03T17:04:14.993Z</time></trkpt><trkpt lat="39.06485" lon="16.222525"><ele>842.0</ele><time>2026-05-03T17:04:16.988Z</time></trkpt><trkpt lat="39.0647617" lon="16.2224783"><ele>842.0</ele><time>2026-05-03T17:04:18.99Z</time></trkpt><trkpt lat="39.0646883" lon="16.2224067"><ele>842.0</ele><time>2026-05-03T17:04:20.992Z</time></trkpt><trkpt lat="39.064625" lon="16.22231"><ele>842.0</ele><time>2026-05-03T17:04:22.991Z</time></trkpt><trkpt lat="39.064555" lon="16.22222"><ele>842.0</ele><time>2026-05-03T17:04:24.988Z</time></trkpt><trkpt lat="39.0645067" lon="16.22212"><ele>842.0</ele><time>2026-05-03T17:04:26.989Z</time></trkpt><trkpt lat="39.0644883" lon="16.222025"><ele>837.3333333333334</ele><time>2026-05-03T17:04:28.989Z</time></trkpt><trkpt lat="39.0645217" lon="16.2219483"><ele>832.6666666666667</ele><time>2026-05-03T17:04:37.99Z</time></trkpt><trkpt lat="39.0645767" lon="16.2218617"><ele>828.0</ele><time>2026-05-03T17:04:40.99Z</time></trkpt><trkpt lat="39.064605" lon="16.2217783"><ele>823.3333333333333</ele><time>2026-05-03T17:04:43.981Z</time></trkpt><trkpt lat="39.0646383" lon="16.2216917"><ele>818.6666666666666</ele><time>2026-05-03T17:04:46.992Z</time></trkpt><trkpt lat="39.06466" lon="16.2215783"><ele>814.0</ele><time>2026-05-03T17:04:48.99Z</time></trkpt><trkpt lat="39.0646717" lon="16.22143"><ele>810.4285714285714</ele><time>2026-05-03T17:04:50.99Z</time></trkpt><trkpt lat="39.0646733" lon="16.2213467"><ele>806.8571428571429</ele><time>2026-05-03T17:04:51.99Z</time></trkpt><trkpt lat="39.0646767" lon="16.2212633"><ele>803.2857142857142</ele><time>2026-05-03T17:04:52.99Z</time></trkpt><trkpt lat="39.0646817" lon="16.2211783"><ele>799.7142857142858</ele><time>2026-05-03T17:04:53.982Z</time></trkpt><trkpt lat="39.0646867" lon="16.221095"><ele>796.1428571428571</ele><time>2026-05-03T17:04:54.99Z</time></trkpt><trkpt lat="39.0646933" lon="16.2210117"><ele>792.5714285714286</ele><time>2026-05-03T17:04:55.99Z</time></trkpt><trkpt lat="39.0646983" lon="16.2209283"><ele>789.0</ele><time>2026-05-03T17:04:56.994Z</time></trkpt><trkpt lat="39.064685" lon="16.220775"><ele>785.8000000000001</ele><time>2026-05-03T17:04:58.991Z</time></trkpt><trkpt lat="39.0646683" lon="16.2206167"><ele>782.6</ele><time>2026-05-03T17:05:00.992Z</time></trkpt><trkpt lat="39.0646667" lon="16.2205333"><ele>779.4</ele><time>2026-05-03T17:05:01.991Z</time></trkpt><trkpt lat="39.0646933" lon="16.2203733"><ele>776.2</ele><time>2026-05-03T17:05:03.981Z</time></trkpt><trkpt lat="39.0647217" lon="16.2202967"><ele>773.0</ele><time>2026-05-03T17:05:04.991Z</time></trkpt><trkpt lat="39.0647583" lon="16.22022"><ele>773.0</ele><time>2026-05-03T17:05:05.982Z</time></trkpt><trkpt lat="39.0648" lon="16.2201433"><ele>773.0</ele><time>2026-05-03T17:05:06.991Z</time></trkpt><trkpt lat="39.0648417" lon="16.2200733"><ele>773.0</ele><time>2026-05-03T17:05:07.991Z</time></trkpt><trkpt lat="39.0648783" lon="16.2200017"><ele>773.0</ele><time>2026-05-03T17:05:08.99Z</time></trkpt><trkpt lat="39.0649167" lon="16.2199283"><ele>773.0</ele><time>2026-05-03T17:05:09.989Z</time></trkpt><trkpt lat="39.0649467" lon="16.21985"><ele>773.0</ele><time>2026-05-03T17:05:10.991Z</time></trkpt><trkpt lat="39.0649733" lon="16.219765"><ele>773.0</ele><time>2026-05-03T17:05:11.991Z</time></trkpt><trkpt lat="39.0649967" lon="16.2196717"><ele>774.8</ele><time>2026-05-03T17:05:12.991Z</time></trkpt><trkpt lat="39.0650083" lon="16.2195833"><ele>776.5999999999999</ele><time>2026-05-03T17:05:13.99Z</time></trkpt><trkpt lat="39.0650333" lon="16.2194783"><ele>778.4000000000001</ele><time>2026-05-03T17:05:14.993Z</time></trkpt><trkpt lat="39.0650667" lon="16.219355"><ele>780.2</ele><time>2026-05-03T17:05:15.99Z</time></trkpt><trkpt lat="39.065095" lon="16.2192217"><ele>782.0</ele><time>2026-05-03T17:05:16.992Z</time></trkpt><trkpt lat="39.0651117" lon="16.2190867"><ele>780.2</ele><time>2026-05-03T17:05:17.99Z</time></trkpt><trkpt lat="39.0651183" lon="16.2189417"><ele>778.4000000000001</ele><time>2026-05-03T17:05:18.993Z</time></trkpt><trkpt lat="39.06511" lon="16.2187983"><ele>776.5999999999999</ele><time>2026-05-03T17:05:19.991Z</time></trkpt><trkpt lat="39.0650917" lon="16.21866"><ele>774.8</ele><time>2026-05-03T17:05:20.993Z</time></trkpt><trkpt lat="39.0650667" lon="16.218535"><ele>773.0</ele><time>2026-05-03T17:05:21.988Z</time></trkpt><trkpt lat="39.0650483" lon="16.2184083"><ele>773.0</ele><time>2026-05-03T17:05:22.991Z</time></trkpt><trkpt lat="39.0650533" lon="16.2182833"><ele>773.0</ele><time>2026-05-03T17:05:23.981Z</time></trkpt><trkpt lat="39.0650667" lon="16.2181567"><ele>773.0</ele><time>2026-05-03T17:05:24.993Z</time></trkpt><trkpt lat="39.0650783" lon="16.2180267"><ele>773.0</ele><time>2026-05-03T17:05:25.991Z</time></trkpt><trkpt lat="39.0650783" lon="16.217885"><ele>773.0</ele><time>2026-05-03T17:05:26.991Z</time></trkpt><trkpt lat="39.0650733" lon="16.2177367"><ele>772.0</ele><time>2026-05-03T17:05:27.992Z</time></trkpt><trkpt lat="39.0650567" lon="16.2175883"><ele>771.0</ele><time>2026-05-03T17:05:28.99Z</time></trkpt><trkpt lat="39.0650333" lon="16.2174467"><ele>770.0</ele><time>2026-05-03T17:05:29.991Z</time></trkpt><trkpt lat="39.0650117" lon="16.2173217"><ele>769.0</ele><time>2026-05-03T17:05:30.991Z</time></trkpt><trkpt lat="39.0649867" lon="16.217225"><ele>768.0</ele><time>2026-05-03T17:05:31.99Z</time></trkpt><trkpt lat="39.0649767" lon="16.2171283"><ele>768.0</ele><time>2026-05-03T17:05:32.992Z</time></trkpt><trkpt lat="39.0649883" lon="16.217035"><ele>768.0</ele><time>2026-05-03T17:05:34.99Z</time></trkpt><trkpt lat="39.0650367" lon="16.21716"><ele>768.0</ele><time>2026-05-03T17:05:45.991Z</time></trkpt><trkpt lat="39.0650767" lon="16.2173183"><ele>768.0</ele><time>2026-05-03T17:05:47.982Z</time></trkpt><trkpt lat="39.0651067" lon="16.2174133"><ele>768.0</ele><time>2026-05-03T17:05:48.991Z</time></trkpt><trkpt lat="39.065145" lon="16.2175067"><ele>768.0</ele><time>2026-05-03T17:05:49.991Z</time></trkpt><trkpt lat="39.0651867" lon="16.2175967"><ele>768.0</ele><time>2026-05-03T17:05:50.982Z</time></trkpt><trkpt lat="39.0652183" lon="16.21768"><ele>768.0</ele><time>2026-05-03T17:05:51.991Z</time></trkpt><trkpt lat="39.0652467" lon="16.2177567"><ele>768.0</ele><time>2026-05-03T17:05:52.99Z</time></trkpt><trkpt lat="39.0653233" lon="16.2178383"><ele>768.0</ele><time>2026-05-03T17:05:54.991Z</time></trkpt><trkpt lat="39.065385" lon="16.21782"><ele>768.0</ele><time>2026-05-03T17:05:56.99Z</time></trkpt><trkpt lat="39.0654133" lon="16.21769"><ele>768.0</ele><time>2026-05-03T17:05:58.99Z</time></trkpt><trkpt lat="39.0654167" lon="16.2175883"><ele>768.0</ele><time>2026-05-03T17:05:59.991Z</time></trkpt><trkpt lat="39.065415" lon="16.2174933"><ele>768.0</ele><time>2026-05-03T17:06:00.991Z</time></trkpt><trkpt lat="39.0653917" lon="16.217395"><ele>768.0</ele><time>2026-05-03T17:06:01.99Z</time></trkpt><trkpt lat="39.0653733" lon="16.2172933"><ele>768.0</ele><time>2026-05-03T17:06:02.993Z</time></trkpt><trkpt lat="39.0653517" lon="16.2171617"><ele>768.0</ele><time>2026-05-03T17:06:03.981Z</time></trkpt><trkpt lat="39.06535" lon="16.2170767"><ele>765.4</ele><time>2026-05-03T17:06:04.991Z</time></trkpt><trkpt lat="39.0653917" lon="16.21697"><ele>762.8</ele><time>2026-05-03T17:06:06.979Z</time></trkpt><trkpt lat="39.0654717" lon="16.2169867"><ele>760.2</ele><time>2026-05-03T17:06:08.992Z</time></trkpt><trkpt lat="39.0655233" lon="16.217055"><ele>757.6</ele><time>2026-05-03T17:06:09.989Z</time></trkpt><trkpt lat="39.0656" lon="16.2171883"><ele>755.0</ele><time>2026-05-03T17:06:10.991Z</time></trkpt><trkpt lat="39.06565" lon="16.2172983"><ele>757.6</ele><time>2026-05-03T17:06:11.981Z</time></trkpt><trkpt lat="39.0656917" lon="16.2174233"><ele>760.2</ele><time>2026-05-03T17:06:12.991Z</time></trkpt><trkpt lat="39.0657267" lon="16.21754"><ele>762.8</ele><time>2026-05-03T17:06:13.99Z</time></trkpt><trkpt lat="39.065755" lon="16.2176567"><ele>765.4</ele><time>2026-05-03T17:06:14.991Z</time></trkpt><trkpt lat="39.0657833" lon="16.2177683"><ele>768.0</ele><time>2026-05-03T17:06:15.988Z</time></trkpt><trkpt lat="39.06581" lon="16.2178733"><ele>762.5999999999999</ele><time>2026-05-03T17:06:16.987Z</time></trkpt><trkpt lat="39.0658417" lon="16.21796"><ele>757.1999999999999</ele><time>2026-05-03T17:06:17.989Z</time></trkpt><trkpt lat="39.0658767" lon="16.21804"><ele>751.8</ele><time>2026-05-03T17:06:18.991Z</time></trkpt><trkpt lat="39.06591" lon="16.2181167"><ele>746.4</ele><time>2026-05-03T17:06:19.99Z</time></trkpt><trkpt lat="39.06603" lon="16.2180133"><ele>741.0</ele><time>2026-05-03T17:06:21.988Z</time></trkpt><trkpt lat="39.0661267" lon="16.2178833"><ele>741.0</ele><time>2026-05-03T17:06:22.991Z</time></trkpt><trkpt lat="39.0662333" lon="16.2177383"><ele>741.0</ele><time>2026-05-03T17:06:23.979Z</time></trkpt><trkpt lat="39.0663733" lon="16.2175767"><ele>741.0</ele><time>2026-05-03T17:06:24.991Z</time></trkpt><trkpt lat="39.0664867" lon="16.2174683"><ele>741.0</ele><time>2026-05-03T17:06:25.99Z</time></trkpt><trkpt lat="39.066585" lon="16.217385"><ele>741.0</ele><time>2026-05-03T17:06:26.993Z</time></trkpt><trkpt lat="39.0666617" lon="16.2173167"><ele>741.0</ele><time>2026-05-03T17:06:27.989Z</time></trkpt><trkpt lat="39.0667317" lon="16.2172567"><ele>741.0</ele><time>2026-05-03T17:06:28.991Z</time></trkpt><trkpt lat="39.0667883" lon="16.2171917"><ele>741.0</ele><time>2026-05-03T17:06:29.991Z</time></trkpt><trkpt lat="39.06684" lon="16.2171183"><ele>741.0</ele><time>2026-05-03T17:06:30.981Z</time></trkpt><trkpt lat="39.0668633" lon="16.2170083"><ele>735.8333333333334</ele><time>2026-05-03T17:06:31.99Z</time></trkpt><trkpt lat="39.06687" lon="16.2169083"><ele>730.6666666666666</ele><time>2026-05-03T17:06:32.992Z</time></trkpt><trkpt lat="39.066855" lon="16.21678"><ele>725.5</ele><time>2026-05-03T17:06:33.99Z</time></trkpt><trkpt lat="39.0668733" lon="16.216665"><ele>720.3333333333333</ele><time>2026-05-03T17:06:34.99Z</time></trkpt><trkpt lat="39.0668933" lon="16.2165583"><ele>715.1666666666666</ele><time>2026-05-03T17:06:35.99Z</time></trkpt><trkpt lat="39.0669217" lon="16.21645"><ele>710.0</ele><time>2026-05-03T17:06:36.994Z</time></trkpt><trkpt lat="39.0669517" lon="16.2163233"><ele>708.2</ele><time>2026-05-03T17:06:37.991Z</time></trkpt><trkpt lat="39.0669667" lon="16.2161867"><ele>706.4</ele><time>2026-05-03T17:06:38.993Z</time></trkpt><trkpt lat="39.066965" lon="16.2160533"><ele>704.5999999999999</ele><time>2026-05-03T17:06:39.991Z</time></trkpt><trkpt lat="39.0669483" lon="16.2159433"><ele>702.8</ele><time>2026-05-03T17:06:40.991Z</time></trkpt><trkpt lat="39.0669317" lon="16.2158583"><ele>701.0</ele><time>2026-05-03T17:06:41.992Z</time></trkpt><trkpt lat="39.0669467" lon="16.2157517"><ele>701.0</ele><time>2026-05-03T17:06:43.991Z</time></trkpt><trkpt lat="39.0670383" lon="16.2157783"><ele>701.0</ele><time>2026-05-03T17:06:46.992Z</time></trkpt><trkpt lat="39.0670833" lon="16.2158683"><ele>701.0</ele><time>2026-05-03T17:06:47.991Z</time></trkpt><trkpt lat="39.0671467" lon="16.216015"><ele>701.0</ele><time>2026-05-03T17:06:48.983Z</time></trkpt><trkpt lat="39.0672083" lon="16.2161183"><ele>701.0</ele><time>2026-05-03T17:06:49.991Z</time></trkpt><trkpt lat="39.06726" lon="16.2162117"><ele>701.0</ele><time>2026-05-03T17:06:50.992Z</time></trkpt><trkpt lat="39.067305" lon="16.21627"><ele>701.0</ele><time>2026-05-03T17:06:51.989Z</time></trkpt><trkpt lat="39.06738" lon="16.2162767"><ele>701.0</ele><time>2026-05-03T17:06:53.991Z</time></trkpt><trkpt lat="39.0673683" lon="16.21616"><ele>701.0</ele><time>2026-05-03T17:06:54.992Z</time></trkpt><trkpt lat="39.06736" lon="16.2159883"><ele>701.0</ele><time>2026-05-03T17:06:55.99Z</time></trkpt><trkpt lat="39.0673533" lon="16.2157967"><ele>696.6666666666666</ele><time>2026-05-03T17:06:56.991Z</time></trkpt><trkpt lat="39.067345" lon="16.21556"><ele>692.3333333333334</ele><time>2026-05-03T17:06:57.99Z</time></trkpt><trkpt lat="39.0673567" lon="16.2153417"><ele>688.0</ele><time>2026-05-03T17:06:58.99Z</time></trkpt><trkpt lat="39.0673333" lon="16.2151517"><ele>688.0</ele><time>2026-05-03T17:06:59.991Z</time></trkpt><trkpt lat="39.0673083" lon="16.2150033"><ele>688.0</ele><time>2026-05-03T17:07:00.99Z</time></trkpt><trkpt lat="39.0672617" lon="16.2148717"><ele>688.0</ele><time>2026-05-03T17:07:01.99Z</time></trkpt><trkpt lat="39.0672" lon="16.214745"><ele>688.0</ele><time>2026-05-03T17:07:02.991Z</time></trkpt><trkpt lat="39.0671117" lon="16.2146267"><ele>683.6666666666667</ele><time>2026-05-03T17:07:03.988Z</time></trkpt><trkpt lat="39.0669883" lon="16.214535"><ele>679.3333333333334</ele><time>2026-05-03T17:07:04.988Z</time></trkpt><trkpt lat="39.0668367" lon="16.2144383"><ele>675.0</ele><time>2026-05-03T17:07:05.981Z</time></trkpt><trkpt lat="39.0666733" lon="16.2143433"><ele>681.0</ele><time>2026-05-03T17:07:06.981Z</time></trkpt><trkpt lat="39.0665183" lon="16.2142417"><ele>687.0</ele><time>2026-05-03T17:07:07.991Z</time></trkpt><trkpt lat="39.066375" lon="16.2141433"><ele>693.0</ele><time>2026-05-03T17:07:08.983Z</time></trkpt><trkpt lat="39.066255" lon="16.2140283"><ele>690.5</ele><time>2026-05-03T17:07:09.989Z</time></trkpt><trkpt lat="39.0661467" lon="16.2139067"><ele>688.0</ele><time>2026-05-03T17:07:10.989Z</time></trkpt><trkpt lat="39.0660567" lon="16.2137667"><ele>685.5</ele><time>2026-05-03T17:07:11.991Z</time></trkpt><trkpt lat="39.0659933" lon="16.2136083"><ele>683.0</ele><time>2026-05-03T17:07:12.991Z</time></trkpt><trkpt lat="39.0659567" lon="16.2134267"><ele>683.0</ele><time>2026-05-03T17:07:13.98Z</time></trkpt><trkpt lat="39.065925" lon="16.2132617"><ele>683.0</ele><time>2026-05-03T17:07:14.992Z</time></trkpt><trkpt lat="39.065895" lon="16.2131117"><ele>683.0</ele><time>2026-05-03T17:07:15.989Z</time></trkpt><trkpt lat="39.065855" lon="16.2129667"><ele>683.0</ele><time>2026-05-03T17:07:16.99Z</time></trkpt><trkpt lat="39.065795" lon="16.2128233"><ele>679.25</ele><time>2026-05-03T17:07:17.99Z</time></trkpt><trkpt lat="39.06573" lon="16.212675"><ele>675.5</ele><time>2026-05-03T17:07:18.989Z</time></trkpt><trkpt lat="39.06567" lon="16.2125367"><ele>671.75</ele><time>2026-05-03T17:07:19.991Z</time></trkpt><trkpt lat="39.065605" lon="16.2124067"><ele>668.0</ele><time>2026-05-03T17:07:20.99Z</time></trkpt><trkpt lat="39.0655417" lon="16.2122883"><ele>667.0</ele><time>2026-05-03T17:07:21.988Z</time></trkpt><trkpt lat="39.0654883" lon="16.2121933"><ele>666.0</ele><time>2026-05-03T17:07:22.99Z</time></trkpt><trkpt lat="39.0654383" lon="16.2121067"><ele>665.0</ele><time>2026-05-03T17:07:23.99Z</time></trkpt><trkpt lat="39.0653933" lon="16.2120167"><ele>664.0</ele><time>2026-05-03T17:07:24.992Z</time></trkpt><trkpt lat="39.06535" lon="16.2119233"><ele>663.0</ele><time>2026-05-03T17:07:25.991Z</time></trkpt><trkpt lat="39.0652983" lon="16.2118167"><ele>662.0</ele><time>2026-05-03T17:07:26.992Z</time></trkpt><trkpt lat="39.0652383" lon="16.2116783"><ele>662.0</ele><time>2026-05-03T17:07:27.988Z</time></trkpt><trkpt lat="39.0652" lon="16.2115267"><ele>662.0</ele><time>2026-05-03T17:07:28.989Z</time></trkpt><trkpt lat="39.0651667" lon="16.211395"><ele>662.0</ele><time>2026-05-03T17:07:29.99Z</time></trkpt><trkpt lat="39.0651617" lon="16.21125"><ele>662.0</ele><time>2026-05-03T17:07:30.982Z</time></trkpt><trkpt lat="39.06518" lon="16.2111067"><ele>661.25</ele><time>2026-05-03T17:07:31.991Z</time></trkpt><trkpt lat="39.065215" lon="16.2109533"><ele>660.5</ele><time>2026-05-03T17:07:32.991Z</time></trkpt><trkpt lat="39.06523" lon="16.2108"><ele>659.75</ele><time>2026-05-03T17:07:33.98Z</time></trkpt><trkpt lat="39.0652133" lon="16.21065"><ele>659.0</ele><time>2026-05-03T17:07:34.981Z</time></trkpt><trkpt lat="39.0651717" lon="16.2104967"><ele>658.0</ele><time>2026-05-03T17:07:35.99Z</time></trkpt><trkpt lat="39.0651167" lon="16.2103433"><ele>657.0</ele><time>2026-05-03T17:07:36.989Z</time></trkpt><trkpt lat="39.06507" lon="16.2102083"><ele>656.0</ele><time>2026-05-03T17:07:37.991Z</time></trkpt><trkpt lat="39.0650417" lon="16.210085"><ele>655.0</ele><time>2026-05-03T17:07:38.992Z</time></trkpt><trkpt lat="39.0650283" lon="16.2099717"><ele>654.0</ele><time>2026-05-03T17:07:39.988Z</time></trkpt><trkpt lat="39.0650267" lon="16.209865"><ele>653.0</ele><time>2026-05-03T17:07:40.99Z</time></trkpt><trkpt lat="39.0650267" lon="16.2097633"><ele>652.0</ele><time>2026-05-03T17:07:41.99Z</time></trkpt><trkpt lat="39.06503" lon="16.20967"><ele>651.0</ele><time>2026-05-03T17:07:42.989Z</time></trkpt><trkpt lat="39.06503" lon="16.20958"><ele>650.0</ele><time>2026-05-03T17:07:43.99Z</time></trkpt><trkpt lat="39.06503" lon="16.20949"><ele>649.0</ele><time>2026-05-03T17:07:44.991Z</time></trkpt><trkpt lat="39.0650317" lon="16.2093983"><ele>648.0</ele><time>2026-05-03T17:07:45.991Z</time></trkpt><trkpt lat="39.065035" lon="16.2093067"><ele>647.0</ele><time>2026-05-03T17:07:46.991Z</time></trkpt><trkpt lat="39.0650417" lon="16.20921"><ele>647.0</ele><time>2026-05-03T17:07:47.991Z</time></trkpt><trkpt lat="39.0650517" lon="16.2091083"><ele>647.0</ele><time>2026-05-03T17:07:48.99Z</time></trkpt><trkpt lat="39.0650633" lon="16.2090033"><ele>647.0</ele><time>2026-05-03T17:07:49.991Z</time></trkpt><trkpt lat="39.0650733" lon="16.2089017"><ele>647.0</ele><time>2026-05-03T17:07:50.992Z</time></trkpt><trkpt lat="39.0650833" lon="16.2088183"><ele>647.0</ele><time>2026-05-03T17:07:51.993Z</time></trkpt><trkpt lat="39.06509" lon="16.2087117"><ele>647.0</ele><time>2026-05-03T17:07:53.99Z</time></trkpt><trkpt lat="39.065105" lon="16.2086167"><ele>646.8333333333333</ele><time>2026-05-03T17:08:00.99Z</time></trkpt><trkpt lat="39.0651233" lon="16.2085367"><ele>646.6666666666666</ele><time>2026-05-03T17:08:05.992Z</time></trkpt><trkpt lat="39.06521" lon="16.2085817"><ele>646.5</ele><time>2026-05-03T17:08:09.989Z</time></trkpt><trkpt lat="39.0652633" lon="16.2086833"><ele>646.3333333333334</ele><time>2026-05-03T17:08:11.98Z</time></trkpt><trkpt lat="39.06529" lon="16.20876"><ele>646.1666666666667</ele><time>2026-05-03T17:08:12.99Z</time></trkpt><trkpt lat="39.0653083" lon="16.2088517"><ele>646.0</ele><time>2026-05-03T17:08:13.992Z</time></trkpt><trkpt lat="39.0653183" lon="16.2089567"><ele>646.1999999999999</ele><time>2026-05-03T17:08:14.992Z</time></trkpt><trkpt lat="39.0653233" lon="16.209075"><ele>646.4</ele><time>2026-05-03T17:08:15.992Z</time></trkpt><trkpt lat="39.0653267" lon="16.2092017"><ele>646.6</ele><time>2026-05-03T17:08:16.982Z</time></trkpt><trkpt lat="39.06534" lon="16.2093317"><ele>646.8</ele><time>2026-05-03T17:08:17.991Z</time></trkpt><trkpt lat="39.06537" lon="16.20946"><ele>647.0</ele><time>2026-05-03T17:08:18.99Z</time></trkpt><trkpt lat="39.0654183" lon="16.2095867"><ele>647.0</ele><time>2026-05-03T17:08:19.992Z</time></trkpt><trkpt lat="39.0654783" lon="16.20971"><ele>647.0</ele><time>2026-05-03T17:08:20.992Z</time></trkpt><trkpt lat="39.0655433" lon="16.2098333"><ele>647.0</ele><time>2026-05-03T17:08:21.99Z</time></trkpt><trkpt lat="39.0656017" lon="16.2099683"><ele>647.0</ele><time>2026-05-03T17:08:22.989Z</time></trkpt><trkpt lat="39.065645" lon="16.2101183"><ele>646.75</ele><time>2026-05-03T17:08:23.991Z</time></trkpt><trkpt lat="39.0657" lon="16.2102667"><ele>646.5</ele><time>2026-05-03T17:08:24.978Z</time></trkpt><trkpt lat="39.0657733" lon="16.2104117"><ele>646.25</ele><time>2026-05-03T17:08:25.99Z</time></trkpt><trkpt lat="39.0658683" lon="16.210545"><ele>646.0</ele><time>2026-05-03T17:08:26.991Z</time></trkpt><trkpt lat="39.0659767" lon="16.2106617"><ele>649.25</ele><time>2026-05-03T17:08:27.99Z</time></trkpt><trkpt lat="39.066095" lon="16.21076"><ele>652.5</ele><time>2026-05-03T17:08:28.989Z</time></trkpt><trkpt lat="39.0662033" lon="16.210855"><ele>655.75</ele><time>2026-05-03T17:08:29.99Z</time></trkpt><trkpt lat="39.0662933" lon="16.210965"><ele>659.0</ele><time>2026-05-03T17:08:30.989Z</time></trkpt><trkpt lat="39.0663583" lon="16.2111017"><ele>659.0</ele><time>2026-05-03T17:08:31.99Z</time></trkpt><trkpt lat="39.0664067" lon="16.2112583"><ele>659.0</ele><time>2026-05-03T17:08:32.979Z</time></trkpt><trkpt lat="39.06644" lon="16.2114267"><ele>659.0</ele><time>2026-05-03T17:08:33.98Z</time></trkpt><trkpt lat="39.0664683" lon="16.2116083"><ele>659.0</ele><time>2026-05-03T17:08:34.991Z</time></trkpt><trkpt lat="39.0664933" lon="16.2117817"><ele>660.5</ele><time>2026-05-03T17:08:35.99Z</time></trkpt><trkpt lat="39.0665117" lon="16.211955"><ele>662.0</ele><time>2026-05-03T17:08:36.982Z</time></trkpt><trkpt lat="39.0665283" lon="16.21212"><ele>663.5</ele><time>2026-05-03T17:08:37.99Z</time></trkpt><trkpt lat="39.06656" lon="16.21227"><ele>665.0</ele><time>2026-05-03T17:08:38.991Z</time></trkpt><trkpt lat="39.0666167" lon="16.21239"><ele>660.75</ele><time>2026-05-03T17:08:39.989Z</time></trkpt><trkpt lat="39.0667117" lon="16.2124717"><ele>656.5</ele><time>2026-05-03T17:08:40.989Z</time></trkpt><trkpt lat="39.0668283" lon="16.2125117"><ele>652.25</ele><time>2026-05-03T17:08:41.99Z</time></trkpt><trkpt lat="39.0669683" lon="16.2125133"><ele>648.0</ele><time>2026-05-03T17:08:42.981Z</time></trkpt><trkpt lat="39.06711" lon="16.2125017"><ele>648.0</ele><time>2026-05-03T17:08:43.991Z</time></trkpt><trkpt lat="39.067245" lon="16.212505"><ele>648.0</ele><time>2026-05-03T17:08:44.99Z</time></trkpt><trkpt lat="39.0673783" lon="16.2125433"><ele>648.0</ele><time>2026-05-03T17:08:45.981Z</time></trkpt><trkpt lat="39.0674983" lon="16.21261"><ele>648.0</ele><time>2026-05-03T17:08:46.987Z</time></trkpt><trkpt lat="39.067615" lon="16.212695"><ele>644.0</ele><time>2026-05-03T17:08:47.988Z</time></trkpt><trkpt lat="39.0677283" lon="16.2127817"><ele>640.0</ele><time>2026-05-03T17:08:48.99Z</time></trkpt><trkpt lat="39.067845" lon="16.2128683"><ele>636.0</ele><time>2026-05-03T17:08:49.98Z</time></trkpt><trkpt lat="39.067945" lon="16.212965"><ele>632.0</ele><time>2026-05-03T17:08:50.992Z</time></trkpt><trkpt lat="39.0680317" lon="16.21308"><ele>636.75</ele><time>2026-05-03T17:08:51.99Z</time></trkpt><trkpt lat="39.0680933" lon="16.2132217"><ele>641.5</ele><time>2026-05-03T17:08:52.99Z</time></trkpt><trkpt lat="39.0681017" lon="16.2133967"><ele>646.25</ele><time>2026-05-03T17:08:53.99Z</time></trkpt><trkpt lat="39.06811" lon="16.21358"><ele>651.0</ele><time>2026-05-03T17:08:54.981Z</time></trkpt><trkpt lat="39.06814" lon="16.213765"><ele>651.0</ele><time>2026-05-03T17:08:55.991Z</time></trkpt><trkpt lat="39.06819" lon="16.2139433"><ele>651.0</ele><time>2026-05-03T17:08:56.993Z</time></trkpt><trkpt lat="39.0682483" lon="16.2141033"><ele>651.0</ele><time>2026-05-03T17:08:57.991Z</time></trkpt><trkpt lat="39.0683283" lon="16.2142233"><ele>651.0</ele><time>2026-05-03T17:08:58.989Z</time></trkpt><trkpt lat="39.0684333" lon="16.2142967"><ele>647.25</ele><time>2026-05-03T17:08:59.99Z</time></trkpt><trkpt lat="39.0685617" lon="16.2143283"><ele>643.5</ele><time>2026-05-03T17:09:00.989Z</time></trkpt><trkpt lat="39.0686983" lon="16.2143367"><ele>639.75</ele><time>2026-05-03T17:09:01.991Z</time></trkpt><trkpt lat="39.06884" lon="16.21437"><ele>636.0</ele><time>2026-05-03T17:09:02.992Z</time></trkpt><trkpt lat="39.0689833" lon="16.2144383"><ele>634.3333333333334</ele><time>2026-05-03T17:09:03.989Z</time></trkpt><trkpt lat="39.0691217" lon="16.2145617"><ele>632.6666666666667</ele><time>2026-05-03T17:09:04.99Z</time></trkpt><trkpt lat="39.0692417" lon="16.21472"><ele>631.0</ele><time>2026-05-03T17:09:05.981Z</time></trkpt><trkpt lat="39.0693367" lon="16.2149117"><ele>631.0</ele><time>2026-05-03T17:09:06.981Z</time></trkpt><trkpt lat="39.0694067" lon="16.215125"><ele>631.0</ele><time>2026-05-03T17:09:07.98Z</time></trkpt><trkpt lat="39.0694683" lon="16.2153483"><ele>631.0</ele><time>2026-05-03T17:09:08.992Z</time></trkpt><trkpt lat="39.06954" lon="16.21557"><ele>634.6666666666667</ele><time>2026-05-03T17:09:09.99Z</time></trkpt><trkpt lat="39.0696183" lon="16.215795"><ele>638.3333333333334</ele><time>2026-05-03T17:09:10.99Z</time></trkpt><trkpt lat="39.0697" lon="16.2160167"><ele>642.0</ele><time>2026-05-03T17:09:11.99Z</time></trkpt><trkpt lat="39.0697717" lon="16.2162517"><ele>645.0</ele><time>2026-05-03T17:09:12.99Z</time></trkpt><trkpt lat="39.0698317" lon="16.216495"><ele>648.0</ele><time>2026-05-03T17:09:13.991Z</time></trkpt><trkpt lat="39.0698817" lon="16.216745"><ele>651.0</ele><time>2026-05-03T17:09:14.99Z</time></trkpt><trkpt lat="39.0699317" lon="16.2169933"><ele>638.6666666666666</ele><time>2026-05-03T17:09:15.991Z</time></trkpt><trkpt lat="39.06999" lon="16.2172417"><ele>626.3333333333333</ele><time>2026-05-03T17:09:16.989Z</time></trkpt><trkpt lat="39.07005" lon="16.217495"><ele>614.0</ele><time>2026-05-03T17:09:17.983Z</time></trkpt><trkpt lat="39.0701133" lon="16.21774"><ele>614.0</ele><time>2026-05-03T17:09:18.99Z</time></trkpt><trkpt lat="39.0701767" lon="16.2179733"><ele>614.0</ele><time>2026-05-03T17:09:19.982Z</time></trkpt><trkpt lat="39.0702267" lon="16.21819"><ele>614.0</ele><time>2026-05-03T17:09:20.993Z</time></trkpt><trkpt lat="39.0702717" lon="16.2183967"><ele>613.6666666666666</ele><time>2026-05-03T17:09:21.988Z</time></trkpt><trkpt lat="39.07031" lon="16.218605"><ele>613.3333333333334</ele><time>2026-05-03T17:09:22.991Z</time></trkpt><trkpt lat="39.0703383" lon="16.2188183"><ele>613.0</ele><time>2026-05-03T17:09:23.991Z</time></trkpt><trkpt lat="39.0703617" lon="16.2190367"><ele>615.6666666666667</ele><time>2026-05-03T17:09:24.99Z</time></trkpt><trkpt lat="39.0703983" lon="16.2192567"><ele>618.3333333333334</ele><time>2026-05-03T17:09:25.981Z</time></trkpt><trkpt lat="39.0704517" lon="16.2194717"><ele>621.0</ele><time>2026-05-03T17:09:26.991Z</time></trkpt><trkpt lat="39.0705183" lon="16.2196783"><ele>625.3333333333334</ele><time>2026-05-03T17:09:27.988Z</time></trkpt><trkpt lat="39.0705833" lon="16.2198717"><ele>629.6666666666667</ele><time>2026-05-03T17:09:28.989Z</time></trkpt><trkpt lat="39.0706467" lon="16.2200517"><ele>634.0</ele><time>2026-05-03T17:09:29.99Z</time></trkpt><trkpt lat="39.070725" lon="16.2202067"><ele>624.75</ele><time>2026-05-03T17:09:30.99Z</time></trkpt><trkpt lat="39.0708233" lon="16.2203333"><ele>615.5</ele><time>2026-05-03T17:09:31.99Z</time></trkpt><trkpt lat="39.0709483" lon="16.2204367"><ele>606.25</ele><time>2026-05-03T17:09:32.994Z</time></trkpt><trkpt lat="39.0710933" lon="16.2205233"><ele>597.0</ele><time>2026-05-03T17:09:33.989Z</time></trkpt><trkpt lat="39.0712483" lon="16.2206017"><ele>594.6666666666666</ele><time>2026-05-03T17:09:34.99Z</time></trkpt><trkpt lat="39.0713967" lon="16.2206867"><ele>592.3333333333333</ele><time>2026-05-03T17:09:35.991Z</time></trkpt><trkpt lat="39.0715383" lon="16.220775"><ele>590.0</ele><time>2026-05-03T17:09:36.99Z</time></trkpt><trkpt lat="39.0716683" lon="16.220885"><ele>590.0</ele><time>2026-05-03T17:09:37.99Z</time></trkpt><trkpt lat="39.071785" lon="16.22102"><ele>590.0</ele><time>2026-05-03T17:09:38.991Z</time></trkpt><trkpt lat="39.0718867" lon="16.2211683"><ele>590.0</ele><time>2026-05-03T17:09:39.989Z</time></trkpt><trkpt lat="39.0719783" lon="16.22132"><ele>590.0</ele><time>2026-05-03T17:09:40.989Z</time></trkpt><trkpt lat="39.07206" lon="16.22146"><ele>590.0</ele><time>2026-05-03T17:09:41.991Z</time></trkpt><trkpt lat="39.0721233" lon="16.22158"><ele>590.0</ele><time>2026-05-03T17:09:42.99Z</time></trkpt><trkpt lat="39.072175" lon="16.22168"><ele>590.0</ele><time>2026-05-03T17:09:43.991Z</time></trkpt><trkpt lat="39.07222" lon="16.2217583"><ele>590.0</ele><time>2026-05-03T17:09:44.992Z</time></trkpt><trkpt lat="39.072295" lon="16.2218617"><ele>590.0</ele><time>2026-05-03T17:09:46.991Z</time></trkpt><trkpt lat="39.0723133" lon="16.2217683"><ele>590.0</ele><time>2026-05-03T17:09:51.979Z</time></trkpt><trkpt lat="39.07226" lon="16.221695"><ele>590.0</ele><time>2026-05-03T17:09:53.99Z</time></trkpt><trkpt lat="39.0722017" lon="16.2216183"><ele>590.0</ele><time>2026-05-03T17:09:55.99Z</time></trkpt><trkpt lat="39.07216" lon="16.22153"><ele>590.0</ele><time>2026-05-03T17:09:57.98Z</time></trkpt><trkpt lat="39.0721333" lon="16.22143"><ele>590.0</ele><time>2026-05-03T17:09:59.99Z</time></trkpt><trkpt lat="39.0721183" lon="16.2213367"><ele>590.0</ele><time>2026-05-03T17:10:01.992Z</time></trkpt><trkpt lat="39.0721917" lon="16.2212667"><ele>590.0</ele><time>2026-05-03T17:10:04.989Z</time></trkpt><trkpt lat="39.0722667" lon="16.2213167"><ele>590.0</ele><time>2026-05-03T17:10:06.989Z</time></trkpt><trkpt lat="39.0723533" lon="16.2213883"><ele>590.0</ele><time>2026-05-03T17:10:08.99Z</time></trkpt><trkpt lat="39.0724583" lon="16.2214783"><ele>590.0</ele><time>2026-05-03T17:10:10.99Z</time></trkpt><trkpt lat="39.0725167" lon="16.2215267"><ele>588.1666666666666</ele><time>2026-05-03T17:10:11.981Z</time></trkpt><trkpt lat="39.0725783" lon="16.2215817"><ele>586.3333333333333</ele><time>2026-05-03T17:10:12.991Z</time></trkpt><trkpt lat="39.0726383" lon="16.2216383"><ele>584.5</ele><time>2026-05-03T17:10:13.99Z</time></trkpt><trkpt lat="39.0727017" lon="16.221705"><ele>582.6666666666666</ele><time>2026-05-03T17:10:14.992Z</time></trkpt><trkpt lat="39.0727617" lon="16.2217767"><ele>580.8333333333334</ele><time>2026-05-03T17:10:15.989Z</time></trkpt><trkpt lat="39.0728233" lon="16.22185"><ele>579.0</ele><time>2026-05-03T17:10:16.989Z</time></trkpt><trkpt lat="39.0728817" lon="16.2219267"><ele>579.0</ele><time>2026-05-03T17:10:17.99Z</time></trkpt><trkpt lat="39.0729483" lon="16.2220083"><ele>579.0</ele><time>2026-05-03T17:10:18.992Z</time></trkpt><trkpt lat="39.073015" lon="16.2220883"><ele>579.0</ele><time>2026-05-03T17:10:19.99Z</time></trkpt><trkpt lat="39.07308" lon="16.222165"><ele>579.0</ele><time>2026-05-03T17:10:20.98Z</time></trkpt><trkpt lat="39.0731433" lon="16.2222383"><ele>579.0</ele><time>2026-05-03T17:10:21.989Z</time></trkpt><trkpt lat="39.0732083" lon="16.2223083"><ele>579.0</ele><time>2026-05-03T17:10:22.989Z</time></trkpt><trkpt lat="39.07327" lon="16.2223783"><ele>576.5714285714286</ele><time>2026-05-03T17:10:23.991Z</time></trkpt><trkpt lat="39.0733317" lon="16.2224467"><ele>574.1428571428571</ele><time>2026-05-03T17:10:24.99Z</time></trkpt><trkpt lat="39.0733883" lon="16.2225167"><ele>571.7142857142858</ele><time>2026-05-03T17:10:25.991Z</time></trkpt><trkpt lat="39.073445" lon="16.2225783"><ele>569.2857142857142</ele><time>2026-05-03T17:10:26.989Z</time></trkpt><trkpt lat="39.0735017" lon="16.2226367"><ele>566.8571428571429</ele><time>2026-05-03T17:10:27.987Z</time></trkpt><trkpt lat="39.07356" lon="16.2226883"><ele>564.4285714285714</ele><time>2026-05-03T17:10:28.99Z</time></trkpt><trkpt lat="39.0736183" lon="16.22274"><ele>562.0</ele><time>2026-05-03T17:10:29.991Z</time></trkpt><trkpt lat="39.0736767" lon="16.2227883"><ele>562.0000000000001</ele><time>2026-05-03T17:10:30.988Z</time></trkpt><trkpt lat="39.0737367" lon="16.222835"><ele>562.0</ele><time>2026-05-03T17:10:31.989Z</time></trkpt><trkpt lat="39.0737933" lon="16.222885"><ele>562.0</ele><time>2026-05-03T17:10:32.992Z</time></trkpt><trkpt lat="39.0738467" lon="16.2229367"><ele>562.0</ele><time>2026-05-03T17:10:33.987Z</time></trkpt><trkpt lat="39.0738967" lon="16.22299"><ele>562.0</ele><time>2026-05-03T17:10:34.989Z</time></trkpt><trkpt lat="39.0739433" lon="16.22305"><ele>562.0000000000001</ele><time>2026-05-03T17:10:35.989Z</time></trkpt><trkpt lat="39.0739933" lon="16.223105"><ele>562.0</ele><time>2026-05-03T17:10:36.989Z</time></trkpt><trkpt lat="39.0740567" lon="16.223145"><ele>559.1666666666667</ele><time>2026-05-03T17:10:37.989Z</time></trkpt><trkpt lat="39.0741383" lon="16.2231617"><ele>556.3333333333334</ele><time>2026-05-03T17:10:38.99Z</time></trkpt><trkpt lat="39.0742183" lon="16.2231683"><ele>553.5</ele><time>2026-05-03T17:10:39.987Z</time></trkpt><trkpt lat="39.074295" lon="16.223165"><ele>550.6666666666666</ele><time>2026-05-03T17:10:40.989Z</time></trkpt><trkpt lat="39.07437" lon="16.223155"><ele>547.8333333333333</ele><time>2026-05-03T17:10:41.991Z</time></trkpt><trkpt lat="39.074435" lon="16.2231433"><ele>545.0</ele><time>2026-05-03T17:10:42.992Z</time></trkpt><trkpt lat="39.0745367" lon="16.223125"><ele>545.0</ele><time>2026-05-03T17:10:44.992Z</time></trkpt><trkpt lat="39.0746117" lon="16.22313"><ele>545.0</ele><time>2026-05-03T17:10:46.989Z</time></trkpt><trkpt lat="39.07468" lon="16.2231783"><ele>545.0</ele><time>2026-05-03T17:10:48.994Z</time></trkpt><trkpt lat="39.0747217" lon="16.2232767"><ele>545.0</ele><time>2026-05-03T17:10:50.992Z</time></trkpt><trkpt lat="39.0747517" lon="16.2234"><ele>545.0</ele><time>2026-05-03T17:10:52.989Z</time></trkpt><trkpt lat="39.074785" lon="16.2235383"><ele>545.0</ele><time>2026-05-03T17:10:54.992Z</time></trkpt><trkpt lat="39.0748167" lon="16.2236967"><ele>545.0</ele><time>2026-05-03T17:10:56.992Z</time></trkpt><trkpt lat="39.07483" lon="16.2237767"><ele>545.0</ele><time>2026-05-03T17:10:57.987Z</time></trkpt><trkpt lat="39.0748467" lon="16.2238567"><ele>545.0</ele><time>2026-05-03T17:10:58.992Z</time></trkpt><trkpt lat="39.074865" lon="16.2239367"><ele>545.0</ele><time>2026-05-03T17:10:59.991Z</time></trkpt><trkpt lat="39.074885" lon="16.22402"><ele>545.0</ele><time>2026-05-03T17:11:00.99Z</time></trkpt><trkpt lat="39.0749017" lon="16.224105"><ele>544.5</ele><time>2026-05-03T17:11:01.993Z</time></trkpt><trkpt lat="39.0749217" lon="16.2241917"><ele>544.0</ele><time>2026-05-03T17:11:02.992Z</time></trkpt><trkpt lat="39.07494" lon="16.2242783"><ele>543.5</ele><time>2026-05-03T17:11:03.987Z</time></trkpt><trkpt lat="39.0749483" lon="16.2243683"><ele>543.0</ele><time>2026-05-03T17:11:04.989Z</time></trkpt><trkpt lat="39.0749633" lon="16.2244533"><ele>542.5</ele><time>2026-05-03T17:11:05.981Z</time></trkpt><trkpt lat="39.0749717" lon="16.2246017"><ele>542.0</ele><time>2026-05-03T17:11:07.99Z</time></trkpt><trkpt lat="39.0749767" lon="16.2246967"><ele>538.0</ele><time>2026-05-03T17:11:10.989Z</time></trkpt><trkpt lat="39.07506" lon="16.22472"><ele>534.0</ele><time>2026-05-03T17:11:14.992Z</time></trkpt><trkpt lat="39.0751183" lon="16.2246767"><ele>530.0</ele><time>2026-05-03T17:11:16.989Z</time></trkpt><trkpt lat="39.0751883" lon="16.2246117"><ele>526.0</ele><time>2026-05-03T17:11:18.992Z</time></trkpt><trkpt lat="39.075285" lon="16.2245367"><ele>522.0</ele><time>2026-05-03T17:11:20.992Z</time></trkpt><trkpt lat="39.0753933" lon="16.2244667"><ele>522.0</ele><time>2026-05-03T17:11:22.989Z</time></trkpt><trkpt lat="39.0754533" lon="16.2244367"><ele>522.0</ele><time>2026-05-03T17:11:23.989Z</time></trkpt><trkpt lat="39.0755133" lon="16.2244117"><ele>522.0</ele><time>2026-05-03T17:11:24.99Z</time></trkpt><trkpt lat="39.07558" lon="16.224385"><ele>522.0</ele><time>2026-05-03T17:11:25.992Z</time></trkpt><trkpt lat="39.0756417" lon="16.22436"><ele>522.0</ele><time>2026-05-03T17:11:26.992Z</time></trkpt><trkpt lat="39.075755" lon="16.2243483"><ele>522.0</ele><time>2026-05-03T17:11:28.989Z</time></trkpt><trkpt lat="39.0758283" lon="16.2243417"><ele>522.0</ele><time>2026-05-03T17:11:29.989Z</time></trkpt><trkpt lat="39.0759067" lon="16.224325"><ele>520.0</ele><time>2026-05-03T17:11:30.989Z</time></trkpt><trkpt lat="39.075995" lon="16.2242983"><ele>518.0</ele><time>2026-05-03T17:11:31.996Z</time></trkpt><trkpt lat="39.0760667" lon="16.2242867"><ele>516.0</ele><time>2026-05-03T17:11:32.992Z</time></trkpt><trkpt lat="39.0761333" lon="16.2242767"><ele>514.0</ele><time>2026-05-03T17:11:33.987Z</time></trkpt><trkpt lat="39.07626" lon="16.2242367"><ele>512.0</ele><time>2026-05-03T17:11:35.991Z</time></trkpt><trkpt lat="39.0763267" lon="16.224195"><ele>510.0</ele><time>2026-05-03T17:11:36.99Z</time></trkpt><trkpt lat="39.0763917" lon="16.2241517"><ele>510.0</ele><time>2026-05-03T17:11:37.99Z</time></trkpt><trkpt lat="39.0764483" lon="16.2240917"><ele>510.0</ele><time>2026-05-03T17:11:38.992Z</time></trkpt><trkpt lat="39.0765033" lon="16.2240233"><ele>510.0</ele><time>2026-05-03T17:11:39.988Z</time></trkpt><trkpt lat="39.07655" lon="16.2239433"><ele>510.0</ele><time>2026-05-03T17:11:40.989Z</time></trkpt><trkpt lat="39.0765883" lon="16.223855"><ele>510.0</ele><time>2026-05-03T17:11:41.991Z</time></trkpt><trkpt lat="39.0766267" lon="16.223765"><ele>510.0</ele><time>2026-05-03T17:11:42.988Z</time></trkpt><trkpt lat="39.0766633" lon="16.223675"><ele>506.42857142857144</ele><time>2026-05-03T17:11:43.99Z</time></trkpt><trkpt lat="39.0766917" lon="16.2235817"><ele>502.8571428571429</ele><time>2026-05-03T17:11:44.997Z</time></trkpt><trkpt lat="39.076715" lon="16.2234883"><ele>499.28571428571433</ele><time>2026-05-03T17:11:45.989Z</time></trkpt><trkpt lat="39.0767317" lon="16.2233883"><ele>495.7142857142858</ele><time>2026-05-03T17:11:46.99Z</time></trkpt><trkpt lat="39.0767417" lon="16.223295"><ele>492.14285714285717</ele><time>2026-05-03T17:11:47.989Z</time></trkpt><trkpt lat="39.076755" lon="16.2232067"><ele>488.57142857142867</ele><time>2026-05-03T17:11:48.991Z</time></trkpt><trkpt lat="39.076765" lon="16.22312"><ele>485.00000000000006</ele><time>2026-05-03T17:11:49.99Z</time></trkpt><trkpt lat="39.07677" lon="16.22303"><ele>483.1428571428572</ele><time>2026-05-03T17:11:50.991Z</time></trkpt><trkpt lat="39.0767717" lon="16.2229417"><ele>481.28571428571433</ele><time>2026-05-03T17:11:51.99Z</time></trkpt><trkpt lat="39.0767717" lon="16.222855"><ele>479.42857142857144</ele><time>2026-05-03T17:11:52.99Z</time></trkpt><trkpt lat="39.07677" lon="16.222765"><ele>477.5714285714286</ele><time>2026-05-03T17:11:53.99Z</time></trkpt><trkpt lat="39.0767767" lon="16.222675"><ele>475.7142857142858</ele><time>2026-05-03T17:11:54.991Z</time></trkpt><trkpt lat="39.0767883" lon="16.22258"><ele>473.85714285714283</ele><time>2026-05-03T17:11:55.99Z</time></trkpt><trkpt lat="39.0768033" lon="16.2224833"><ele>472.0</ele><time>2026-05-03T17:11:56.991Z</time></trkpt><trkpt lat="39.0768133" lon="16.2223983"><ele>468.00000000000006</ele><time>2026-05-03T17:11:57.988Z</time></trkpt><trkpt lat="39.0767917" lon="16.2222733"><ele>464.0</ele><time>2026-05-03T17:11:59.99Z</time></trkpt><trkpt lat="39.0767133" lon="16.2222183"><ele>460.0</ele><time>2026-05-03T17:12:01.99Z</time></trkpt><trkpt lat="39.076755" lon="16.2221517"><ele>456.0</ele><time>2026-05-03T17:12:04.99Z</time></trkpt><trkpt lat="39.0768317" lon="16.22216"><ele>452.00000000000006</ele><time>2026-05-03T17:12:06.992Z</time></trkpt><trkpt lat="39.0769233" lon="16.222155"><ele>448.0</ele><time>2026-05-03T17:12:08.991Z</time></trkpt><trkpt lat="39.0770083" lon="16.222165"><ele>448.00000000000006</ele><time>2026-05-03T17:12:10.981Z</time></trkpt><trkpt lat="39.0770733" lon="16.22221"><ele>448.0</ele><time>2026-05-03T17:12:12.98Z</time></trkpt><trkpt lat="39.0771217" lon="16.222315"><ele>448.0</ele><time>2026-05-03T17:12:14.994Z</time></trkpt><trkpt lat="39.0771517" lon="16.222465"><ele>448.0</ele><time>2026-05-03T17:12:16.989Z</time></trkpt><trkpt lat="39.0771667" lon="16.2225467"><ele>448.00000000000006</ele><time>2026-05-03T17:12:17.989Z</time></trkpt><trkpt lat="39.077185" lon="16.22263"><ele>448.0</ele><time>2026-05-03T17:12:18.989Z</time></trkpt><trkpt lat="39.0771983" lon="16.2227133"><ele>447.1666666666667</ele><time>2026-05-03T17:12:19.989Z</time></trkpt><trkpt lat="39.07722" lon="16.222795"><ele>446.33333333333337</ele><time>2026-05-03T17:12:20.991Z</time></trkpt><trkpt lat="39.0772433" lon="16.22288"><ele>445.5</ele><time>2026-05-03T17:12:21.989Z</time></trkpt><trkpt lat="39.077275" lon="16.22296"><ele>444.66666666666663</ele><time>2026-05-03T17:12:22.989Z</time></trkpt><trkpt lat="39.0773083" lon="16.223035"><ele>443.8333333333333</ele><time>2026-05-03T17:12:23.991Z</time></trkpt><trkpt lat="39.0773883" lon="16.2231517"><ele>443.0</ele><time>2026-05-03T17:12:25.993Z</time></trkpt><trkpt lat="39.077495" lon="16.2232033"><ele>443.0</ele><time>2026-05-03T17:12:27.99Z</time></trkpt><trkpt lat="39.0776017" lon="16.2232483"><ele>443.0</ele><time>2026-05-03T17:12:29.99Z</time></trkpt><trkpt lat="39.077645" lon="16.2233567"><ele>443.0</ele><time>2026-05-03T17:12:31.99Z</time></trkpt><trkpt lat="39.077615" lon="16.22348"><ele>443.0</ele><time>2026-05-03T17:12:33.987Z</time></trkpt><trkpt lat="39.0775617" lon="16.223525"><ele>443.0</ele><time>2026-05-03T17:12:39.98Z</time></trkpt></trkseg></trk></gpx>